Observation data for South Plains 3ENE on 04/16/2021      Previous  Date  Next       Current Mesonet Observations  Soil Data  Daily Summary Page  Observations in Plain Language
KSP2 160500Z 10008KT 07/07 A2989 RMK A01 T00670067  RH  100%=      5-min Rain = 0
KSP2 160501Z 09008KT 07/07 A2989 RMK A01 T00670067  RH  100%=      5-min Rain = 0
KSP2 160502Z 09010KT 07/07 A2989 RMK A01 T00670067  RH  100%=      5-min Rain = 0
KSP2 160503Z 09008KT 07/07 A2989 RMK A01 T00670067  RH  100%=      5-min Rain = 0
KSP2 160504Z 09009KT 07/07 A2988 RMK A01 T00670067  RH  100%=      5-min Rain = 0
KSP2 160505Z 09007KT 07/07 A2989 RMK A01 T00670067  RH  100%=      5-min Rain = 0
KSP2 160506Z 09008KT 07/07 A2989 RMK A01 T00670067  RH  100%=      5-min Rain = 0
KSP2 160507Z 10008KT 07/07 A2989 RMK A01 T00670067  RH  100%=      5-min Rain = 0
KSP2 160508Z 09006KT 07/07 A2989 RMK A01 T00670067  RH  100%=      5-min Rain = 0
KSP2 160509Z 09007KT 07/07 A2989 RMK A01 T00670067  RH  100%=      5-min Rain = 0
KSP2 160510Z 09010KT 07/07 A2989 RMK A01 T00670067  RH  100%=      5-min Rain = 0
KSP2 160511Z 09011KT 07/07 A2989 RMK A01 T00670067  RH  100%=      5-min Rain = 0
KSP2 160512Z 09009KT 07/07 A2988 RMK A01 T00670067  RH  100%=      5-min Rain = 0
KSP2 160513Z 08009KT 07/07 A2988 RMK A01 T00670067  RH  100%=      5-min Rain = 0
KSP2 160514Z 09009KT 07/07 A2988 RMK A01 T00670067  RH  100%=      5-min Rain = 0
KSP2 160515Z 09010KT 07/07 A2988 RMK A01 T00670067  RH  100%=      5-min Rain = 0
KSP2 160516Z 10010KT 07/07 A2988 RMK A01 T00670067  RH  100%=      5-min Rain = 0
KSP2 160517Z 10009KT 07/07 A2988 RMK A01 T00670067  RH  100%=      5-min Rain = 0
KSP2 160518Z 09009KT 07/07 A2988 RMK A01 T00670067  RH  100%=      5-min Rain = 0
KSP2 160519Z 09009KT 07/07 A2988 RMK A01 T00670067  RH  100%=      5-min Rain = 0
KSP2 160520Z 09008KT 07/07 A2988 RMK A01 T00670067  RH  100%=      5-min Rain = 0
KSP2 160521Z 10009KT 07/07 A2988 RMK A01 T00670067  RH  100%=      5-min Rain = 0
KSP2 160522Z 10010KT 07/07 A2988 RMK A01 T00670067  RH  100%=      5-min Rain = 0
KSP2 160523Z 10010KT 07/07 A2988 RMK A01 T00680068  RH  100%=      5-min Rain = 0
KSP2 160524Z 09010KT 07/07 A2988 RMK A01 T00680068  RH  100%=      5-min Rain = 0
KSP2 160525Z 09009KT 07/07 A2988 RMK A01 T00680068  RH  100%=      5-min Rain = 0
KSP2 160526Z 09009KT 07/07 A2988 RMK A01 T00680068  RH  100%=      5-min Rain = 0
KSP2 160527Z 10010KT 07/07 A2988 RMK A01 T00680068  RH  100%=      5-min Rain = 0
KSP2 160528Z 10008KT 07/07 A2988 RMK A01 T00680068  RH  100%=      5-min Rain = 0
KSP2 160529Z 09006KT 07/07 A2988 RMK A01 T00680068  RH  100%=      5-min Rain = 0
KSP2 160530Z 10008KT 07/07 A2988 RMK A01 T00680068  RH  100%=      5-min Rain = 0
KSP2 160531Z 09008KT 07/07 A2988 RMK A01 T00680068  RH  100%=      5-min Rain = 0
KSP2 160532Z 10010KT 07/07 A2988 RMK A01 T00680068  RH  100%=      5-min Rain = 0
KSP2 160533Z 10010KT 07/07 A2988 RMK A01 T00680068  RH  100%=      5-min Rain = 0
KSP2 160534Z 09008KT 07/07 A2988 RMK A01 T00680068  RH  100%=      5-min Rain = 0
KSP2 160535Z 10008KT 07/07 A2988 RMK A01 T00680068  RH  100%=      5-min Rain = 0
KSP2 160536Z 09010KT 07/07 A2988 RMK A01 T00680068  RH  100%=      5-min Rain = 0
KSP2 160537Z 10010KT 07/07 A2988 RMK A01 T00690069  RH  100%=      5-min Rain = 0
KSP2 160538Z 10011KT 07/07 A2988 RMK A01 T00680068  RH  100%=      5-min Rain = 0
KSP2 160539Z 10008KT 07/07 A2988 RMK A01 T00680068  RH  100%=      5-min Rain = 0
KSP2 160540Z 10009KT 07/07 A2988 RMK A01 T00680068  RH  100%=      5-min Rain = 0
KSP2 160541Z 10010KT 07/07 A2988 RMK A01 T00680068  RH  100%=      5-min Rain = 0
KSP2 160542Z 10008KT 07/07 A2988 RMK A01 T00680068  RH  100%=      5-min Rain = 0
KSP2 160543Z 10009KT 07/07 A2988 RMK A01 T00680069  RH  100%=      5-min Rain = 0
KSP2 160544Z 10009KT 07/07 A2988 RMK A01 T00680068  RH  100%=      5-min Rain = 0
KSP2 160545Z 10010KT 07/07 A2988 RMK A01 T00680068  RH  100%=      5-min Rain = 0
KSP2 160546Z 11010KT 07/07 A2988 RMK A01 T00680068  RH  100%=      5-min Rain = 0
KSP2 160547Z 11010KT 07/07 A2988 RMK A01 T00680068  RH  100%=      5-min Rain = 0
KSP2 160548Z 11010KT 07/07 A2988 RMK A01 T00680068  RH  100%=      5-min Rain = 0
KSP2 160549Z 10010KT 07/07 A2988 RMK A01 T00680068  RH  100%=      5-min Rain = 0
KSP2 160550Z 10011KT 07/07 A2988 RMK A01 T00680068  RH  100%=      5-min Rain = 0
KSP2 160551Z 10010KT 07/07 A2988 RMK A01 T00680068  RH  100%=      5-min Rain = 0
KSP2 160552Z 11008KT 07/07 A2988 RMK A01 T00680068  RH  100%=      5-min Rain = 0
KSP2 160553Z 11009KT 07/07 A2988 RMK A01 T00680068  RH  100%=      5-min Rain = 0
KSP2 160554Z 10009KT 07/07 A2988 RMK A01 T00680068  RH  100%=      5-min Rain = 0
KSP2 160555Z 10010KT 07/07 A2988 RMK A01 T00680068  RH  100%=      5-min Rain = 0
KSP2 160556Z 10010KT 07/07 A2988 RMK A01 T00680068  RH  100%=      5-min Rain = 0
KSP2 160557Z 09008KT 07/07 A2988 RMK A01 T00680068  RH  100%=      5-min Rain = 0
KSP2 160558Z 09007KT 07/07 A2988 RMK A01 T00680068  RH  100%=      5-min Rain = 0
KSP2 160559Z 10008KT 07/07 A2988 RMK A01 T00680068  RH  100%=      5-min Rain = 0
KSP2 160600Z 10008KT 07/07 A2988 RMK A01 T00680068  RH  100%=      5-min Rain = 0
KSP2 160601Z 10008KT 07/07 A2988 RMK A01 T00680068  RH  100%=      5-min Rain = 0
KSP2 160602Z 10007KT 07/07 A2988 RMK A01 T00680068  RH  100%=      5-min Rain = 0
KSP2 160603Z 09008KT 07/07 A2988 RMK A01 T00680068  RH  100%=      5-min Rain = 0
KSP2 160604Z 10007KT 07/07 A2988 RMK A01 T00680068  RH  100%=      5-min Rain = 0
KSP2 160605Z 10009KT 07/07 A2988 RMK A01 T00680068  RH  100%=      5-min Rain = 0
KSP2 160606Z 10008KT 07/07 A2988 RMK A01 T00680068  RH  100%=      5-min Rain = 0
KSP2 160607Z 10009KT 07/07 A2988 RMK A01 T00680068  RH  100%=      5-min Rain = 0
KSP2 160608Z 10010KT 07/07 A2988 RMK A01 T00680068  RH  100%=      5-min Rain = 0
KSP2 160609Z 10009KT 07/07 A2988 RMK A01 T00680068  RH  100%=      5-min Rain = 0
KSP2 160610Z 10008KT 07/07 A2988 RMK A01 T00680068  RH  100%=      5-min Rain = 0
KSP2 160611Z 10008KT 07/07 A2988 RMK A01 T00680068  RH  100%=      5-min Rain = 0
KSP2 160612Z 10008KT 07/07 A2988 RMK A01 T00680068  RH  100%=      5-min Rain = 0
KSP2 160613Z 11007KT 07/07 A2988 RMK A01 T00680068  RH  100%=      5-min Rain = 0
KSP2 160614Z 10007KT 07/07 A2988 RMK A01 T00680068  RH  100%=      5-min Rain = 0
KSP2 160615Z 10009KT 07/07 A2988 RMK A01 T00690069  RH  100%=      5-min Rain = 0
KSP2 160616Z 10009KT 07/07 A2988 RMK A01 T00690069  RH  100%=      5-min Rain = 0
KSP2 160617Z 10009KT 07/07 A2988 RMK A01 T00690069  RH  100%=      5-min Rain = 0
KSP2 160618Z 10008KT 07/07 A2988 RMK A01 T00690069  RH  100%=      5-min Rain = 0
KSP2 160619Z 10009KT 07/07 A2988 RMK A01 T00690069  RH  100%=      5-min Rain = 0
KSP2 160620Z 09010KT 07/07 A2988 RMK A01 T00690069  RH  100%=      5-min Rain = 0
KSP2 160621Z 10009KT 07/07 A2988 RMK A01 T00680068  RH  100%=      5-min Rain = 0
KSP2 160622Z 10008KT 07/07 A2988 RMK A01 T00690069  RH  100%=      5-min Rain = 0
KSP2 160623Z 10008KT 07/07 A2988 RMK A01 T00680068  RH  100%=      5-min Rain = 0.01
KSP2 160624Z 10009KT 07/07 A2988 RMK A01 T00690069  RH  100%=      5-min Rain = 0
KSP2 160625Z 10009KT 07/07 A2988 RMK A01 T00690069  RH  100%=      5-min Rain = 0
KSP2 160626Z 09007KT 07/07 A2988 RMK A01 T00690069  RH  100%=      5-min Rain = 0
KSP2 160627Z 09007KT 07/07 A2988 RMK A01 T00690069  RH  100%=      5-min Rain = 0
KSP2 160628Z 09008KT 07/07 A2988 RMK A01 T00690069  RH  100%=      5-min Rain = 0
KSP2 160629Z 09007KT 07/07 A2988 RMK A01 T00690069  RH  100%=      5-min Rain = 0
KSP2 160630Z 10007KT 07/07 A2988 RMK A01 T00690069  RH  100%=      5-min Rain = 0
KSP2 160631Z 09007KT 07/07 A2988 RMK A01 T00690070  RH  100%=      5-min Rain = 0
KSP2 160632Z 10005KT 07/07 A2988 RMK A01 T00690069  RH  100%=      5-min Rain = 0
KSP2 160633Z 10006KT 07/07 A2988 RMK A01 T00690069  RH  100%=      5-min Rain = 0
KSP2 160634Z 10008KT 07/07 A2988 RMK A01 T00690069  RH  100%=      5-min Rain = 0
KSP2 160635Z 10007KT 07/07 A2988 RMK A01 T00690069  RH  100%=      5-min Rain = 0
KSP2 160636Z 10007KT 07/07 A2988 RMK A01 T00690069  RH  100%=      5-min Rain = 0
KSP2 160637Z 09007KT 07/07 A2988 RMK A01 T00690069  RH  100%=      5-min Rain = 0
KSP2 160638Z 10007KT 07/07 A2988 RMK A01 T00690069  RH  100%=      5-min Rain = 0
KSP2 160639Z 10006KT 07/07 A2988 RMK A01 T00690069  RH  100%=      5-min Rain = 0
KSP2 160640Z 10006KT 07/07 A2988 RMK A01 T00690069  RH  100%=      5-min Rain = 0
KSP2 160641Z 10008KT 07/07 A2988 RMK A01 T00700070  RH  100%=      5-min Rain = 0
KSP2 160642Z 10010KT 07/07 A2988 RMK A01 T00700070  RH  100%=      5-min Rain = 0
KSP2 160643Z 10009KT 07/07 A2987 RMK A01 T00700070  RH  100%=      5-min Rain = 0
KSP2 160644Z 11010KT 07/07 A2987 RMK A01 T00690070  RH  100%=      5-min Rain = 0
KSP2 160645Z 11009KT 07/07 A2987 RMK A01 T00700070  RH  100%=      5-min Rain = 0
KSP2 160646Z 11008KT 07/07 A2987 RMK A01 T00690069  RH  100%=      5-min Rain = 0
KSP2 160647Z 10007KT 07/07 A2987 RMK A01 T00700070  RH  100%=      5-min Rain = 0
KSP2 160648Z 10007KT 07/07 A2987 RMK A01 T00700070  RH  100%=      5-min Rain = 0
KSP2 160649Z 11009KT 07/07 A2987 RMK A01 T00700070  RH  100%=      5-min Rain = 0
KSP2 160650Z 11009KT 07/07 A2987 RMK A01 T00700070  RH  100%=      5-min Rain = 0
KSP2 160651Z 11009KT 07/07 A2987 RMK A01 T00700070  RH  100%=      5-min Rain = 0
KSP2 160652Z 11009KT 07/07 A2987 RMK A01 T00700070  RH  100%=      5-min Rain = 0
KSP2 160653Z 11009KT 07/07 A2987 RMK A01 T00700070  RH  100%=      5-min Rain = 0
KSP2 160654Z 10009KT 07/07 A2987 RMK A01 T00700070  RH  100%=      5-min Rain = 0
KSP2 160655Z 10007KT 07/07 A2987 RMK A01 T00700070  RH  100%=      5-min Rain = 0
KSP2 160656Z 10007KT 07/07 A2987 RMK A01 T00700070  RH  100%=      5-min Rain = 0
KSP2 160657Z 10008KT 07/07 A2987 RMK A01 T00710071  RH  100%=      5-min Rain = 0
KSP2 160658Z 10010KT 07/07 A2987 RMK A01 T00710071  RH  100%=      5-min Rain = 0
KSP2 160659Z 10010KT 07/07 A2987 RMK A01 T00700070  RH  100%=      5-min Rain = 0
KSP2 160700Z 10009KT 07/07 A2986 RMK A01 T00700071  RH  100%=      5-min Rain = 0
KSP2 160701Z 10010KT 07/07 A2986 RMK A01 T00710071  RH  100%=      5-min Rain = 0
KSP2 160702Z 10009KT 07/07 A2986 RMK A01 T00700070  RH  100%=      5-min Rain = 0
KSP2 160703Z 10008KT 07/07 A2986 RMK A01 T00700070  RH  100%=      5-min Rain = 0
KSP2 160704Z 10009KT 07/07 A2986 RMK A01 T00710071  RH  100%=      5-min Rain = 0
KSP2 160705Z 09009KT 07/07 A2986 RMK A01 T00700070  RH  100%=      5-min Rain = 0
KSP2 160706Z 10009KT 07/07 A2986 RMK A01 T00700070  RH  100%=      5-min Rain = 0
KSP2 160707Z 10007KT 07/07 A2986 RMK A01 T00700070  RH  100%=      5-min Rain = 0
KSP2 160708Z 10008KT 07/07 A2986 RMK A01 T00700071  RH  100%=      5-min Rain = 0
KSP2 160709Z 10008KT 07/07 A2986 RMK A01 T00710071  RH  100%=      5-min Rain = 0
KSP2 160710Z 09007KT 07/07 A2986 RMK A01 T00700070  RH  100%=      5-min Rain = 0
KSP2 160711Z 08007KT 07/07 A2986 RMK A01 T00710071  RH  100%=      5-min Rain = 0
KSP2 160712Z 09008KT 07/07 A2986 RMK A01 T00710071  RH  100%=      5-min Rain = 0
KSP2 160713Z 09006KT 07/07 A2986 RMK A01 T00700071  RH  100%=      5-min Rain = 0
KSP2 160714Z 09006KT 07/07 A2986 RMK A01 T00700070  RH  100%=      5-min Rain = 0
KSP2 160715Z 09008KT 07/07 A2986 RMK A01 T00710071  RH  100%=      5-min Rain = 0
KSP2 160716Z 08007KT 07/07 A2986 RMK A01 T00710071  RH  100%=      5-min Rain = 0
KSP2 160717Z 08006KT 07/07 A2986 RMK A01 T00710071  RH  100%=      5-min Rain = 0
KSP2 160718Z 09007KT 07/07 A2986 RMK A01 T00710071  RH  100%=      5-min Rain = 0
KSP2 160719Z 09006KT 07/07 A2986 RMK A01 T00710071  RH  100%=      5-min Rain = 0
KSP2 160720Z 09008KT 07/07 A2986 RMK A01 T00710071  RH  100%=      5-min Rain = 0
KSP2 160721Z 09007KT 07/07 A2986 RMK A01 T00710071  RH  100%=      5-min Rain = 0
KSP2 160722Z 09006KT 07/07 A2986 RMK A01 T00700070  RH  100%=      5-min Rain = 0
KSP2 160723Z 09007KT 07/07 A2986 RMK A01 T00700070  RH  100%=      5-min Rain = 0
KSP2 160724Z 09008KT 07/07 A2986 RMK A01 T00700070  RH  100%=      5-min Rain = 0
KSP2 160725Z 10007KT 07/07 A2986 RMK A01 T00700070  RH  100%=      5-min Rain = 0
KSP2 160726Z 10007KT 07/07 A2985 RMK A01 T00700071  RH  100%=      5-min Rain = 0
KSP2 160727Z 10008KT 07/07 A2985 RMK A01 T00700070  RH  100%=      5-min Rain = 0
KSP2 160728Z 10008KT 07/07 A2985 RMK A01 T00700070  RH  100%=      5-min Rain = 0
KSP2 160729Z 10007KT 07/07 A2985 RMK A01 T00700070  RH  100%=      5-min Rain = 0
KSP2 160730Z 09007KT 07/07 A2985 RMK A01 T00700070  RH  100%=      5-min Rain = 0
KSP2 160731Z 09007KT 07/07 A2985 RMK A01 T00710071  RH  100%=      5-min Rain = 0
KSP2 160732Z 09007KT 07/07 A2985 RMK A01 T00700070  RH  100%=      5-min Rain = 0
KSP2 160733Z 09006KT 07/07 A2985 RMK A01 T00710071  RH  100%=      5-min Rain = 0
KSP2 160734Z 09006KT 07/07 A2985 RMK A01 T00700070  RH  100%=      5-min Rain = 0
KSP2 160735Z 09007KT 07/07 A2985 RMK A01 T00710071  RH  100%=      5-min Rain = 0
KSP2 160736Z 09006KT 07/07 A2985 RMK A01 T00700071  RH  100%=      5-min Rain = 0
KSP2 160737Z 08005KT 07/07 A2986 RMK A01 T00700071  RH  100%=      5-min Rain = 0
KSP2 160738Z 08006KT 07/07 A2986 RMK A01 T00710071  RH  100%=      5-min Rain = 0
KSP2 160739Z 07005KT 07/07 A2986 RMK A01 T00700070  RH  100%=      5-min Rain = 0
KSP2 160740Z 06005KT 07/07 A2986 RMK A01 T00710071  RH  100%=      5-min Rain = 0
KSP2 160741Z 02004KT 07/07 A2987 RMK A01 T00700070  RH  100%=      5-min Rain = 0
KSP2 160742Z 36007KT 07/07 A2988 RMK A01 T00700071  RH  100%=      5-min Rain = 0
KSP2 160743Z 35009KT 07/07 A299 RMK A01 T00700070  RH  100%=      5-min Rain = 0
KSP2 160744Z 35010KT 07/07 A299 RMK A01 T00710071  RH  100%=      5-min Rain = 0
KSP2 160745Z 35012KT 07/07 A2991 RMK A01 T00710071  RH  100%=      5-min Rain = 0
KSP2 160746Z 34013KT 07/07 A2991 RMK A01 T00710071  RH  100%=      5-min Rain = 0
KSP2 160747Z 34013KT 07/07 A2992 RMK A01 T00710072  RH  100%=      5-min Rain = 0
KSP2 160748Z 34011KT 07/07 A2991 RMK A01 T00710071  RH  100%=      5-min Rain = 0
KSP2 160749Z 34007KT 07/07 A2991 RMK A01 T00710071  RH  100%=      5-min Rain = 0
KSP2 160750Z 36005KT 07/07 A299 RMK A01 T00710071  RH  100%=      5-min Rain = 0
KSP2 160751Z 03003KT 07/07 A2989 RMK A01 T00710071  RH  100%=      5-min Rain = 0
KSP2 160752Z 04004KT 07/07 A2988 RMK A01 T00710071  RH  100%=      5-min Rain = 0
KSP2 160753Z 02004KT 07/07 A2988 RMK A01 T00710071  RH  100%=      5-min Rain = 0
KSP2 160754Z 35006KT 07/07 A2989 RMK A01 T00700070  RH  100%=      5-min Rain = 0
KSP2 160755Z 34008KT 07/07 A299 RMK A01 T00700070  RH  100%=      5-min Rain = 0
KSP2 160756Z 34009KT 07/07 A299 RMK A01 T00700071  RH  100%=      5-min Rain = 0
KSP2 160757Z 33011KT 07/07 A2991 RMK A01 T00710071  RH  100%=      5-min Rain = 0
KSP2 160758Z 34011KT 07/07 A2991 RMK A01 T00700070  RH  100%=      5-min Rain = 0
KSP2 160759Z 33012KT 07/07 A2991 RMK A01 T00710071  RH  100%=      5-min Rain = 0
KSP2 160800Z 34010KT 07/07 A2991 RMK A01 T00700070  RH  100%=      5-min Rain = 0
KSP2 160801Z 34007KT 07/07 A299 RMK A01 T00700070  RH  100%=      5-min Rain = 0
KSP2 160802Z 36004KT 07/07 A2989 RMK A01 T00700070  RH  100%=      5-min Rain = 0
KSP2 160803Z 04004KT 07/07 A2988 RMK A01 T00710071  RH  100%=      5-min Rain = 0
KSP2 160804Z 05003KT 07/07 A2988 RMK A01 T00710071  RH  100%=      5-min Rain = 0
KSP2 160805Z 04004KT 07/07 A2988 RMK A01 T00700070  RH  100%=      5-min Rain = 0
KSP2 160806Z 00005KT 07/07 A2989 RMK A01 T00700070  RH  100%=      5-min Rain = 0
KSP2 160807Z 34008KT 07/07 A299 RMK A01 T00700070  RH  100%=      5-min Rain = 0
KSP2 160808Z 34009KT 07/07 A2991 RMK A01 T00700070  RH  100%=      5-min Rain = 0
KSP2 160809Z 34010KT 07/07 A2991 RMK A01 T00700070  RH  100%=      5-min Rain = 0
KSP2 160810Z 34008KT 07/07 A2991 RMK A01 T00700070  RH  100%=      5-min Rain = 0
KSP2 160811Z 35007KT 07/07 A299 RMK A01 T00700070  RH  100%=      5-min Rain = 0.01
KSP2 160812Z 01005KT 07/07 A2989 RMK A01 T00700070  RH  100%=      5-min Rain = 0
KSP2 160813Z 05005KT 07/07 A2988 RMK A01 T00700070  RH  100%=      5-min Rain = 0
KSP2 160814Z 05005KT 07/07 A2988 RMK A01 T00700070  RH  100%=      5-min Rain = 0
KSP2 160815Z 05004KT 07/07 A2988 RMK A01 T00700070  RH  100%=      5-min Rain = 0
KSP2 160816Z 02005KT 07/07 A2989 RMK A01 T00690070  RH  100%=      5-min Rain = 0
KSP2 160817Z 36007KT 07/07 A299 RMK A01 T00690069  RH  100%=      5-min Rain = 0
KSP2 160818Z 34007KT 07/07 A299 RMK A01 T00700070  RH  100%=      5-min Rain = 0
KSP2 160819Z 35007KT 07/07 A299 RMK A01 T00690070  RH  100%=      5-min Rain = 0
KSP2 160820Z 36006KT 07/07 A299 RMK A01 T00700070  RH  100%=      5-min Rain = 0
KSP2 160821Z 01005KT 07/07 A2989 RMK A01 T00700070  RH  100%=      5-min Rain = 0
KSP2 160822Z 03005KT 07/07 A2989 RMK A01 T00700070  RH  100%=      5-min Rain = 0
KSP2 160823Z 03003KT 07/07 A2989 RMK A01 T00690070  RH  100%=      5-min Rain = 0
KSP2 160824Z 03003KT 07/07 A2989 RMK A01 T00700070  RH  100%=      5-min Rain = 0
KSP2 160825Z 01004KT 07/07 A2989 RMK A01 T00700070  RH  100%=      5-min Rain = 0
KSP2 160826Z 01004KT 07/07 A2989 RMK A01 T00700070  RH  100%=      5-min Rain = 0
KSP2 160827Z 01004KT 07/07 A2989 RMK A01 T00700070  RH  100%=      5-min Rain = 0
KSP2 160828Z 01005KT 07/07 A2989 RMK A01 T00700070  RH  100%=      5-min Rain = 0
KSP2 160829Z 01006KT 07/07 A2989 RMK A01 T00690069  RH  100%=      5-min Rain = 0
KSP2 160830Z 01007KT 07/07 A2989 RMK A01 T00700070  RH  100%=      5-min Rain = 0
KSP2 160831Z 00007KT 07/07 A2989 RMK A01 T00690069  RH  100%=      5-min Rain = 0
KSP2 160832Z 00007KT 07/07 A299 RMK A01 T00690069  RH  100%=      5-min Rain = 0
KSP2 160833Z 00007KT 07/07 A299 RMK A01 T00690069  RH  100%=      5-min Rain = 0
KSP2 160834Z 35008KT 07/07 A299 RMK A01 T00690069  RH  100%=      5-min Rain = 0
KSP2 160835Z 36008KT 07/07 A299 RMK A01 T00690069  RH  100%=      5-min Rain = 0
KSP2 160836Z 35006KT 07/07 A299 RMK A01 T00690069  RH  100%=      5-min Rain = 0
KSP2 160837Z 35006KT 07/07 A2991 RMK A01 T00690069  RH  100%=      5-min Rain = 0
KSP2 160838Z 34007KT 07/07 A2991 RMK A01 T00690069  RH  100%=      5-min Rain = 0
KSP2 160839Z 35008KT 07/07 A2991 RMK A01 T00690069  RH  100%=      5-min Rain = 0
KSP2 160840Z 36008KT 07/07 A299 RMK A01 T00690069  RH  100%=      5-min Rain = 0
KSP2 160841Z 36008KT 07/07 A299 RMK A01 T00690069  RH  100%=      5-min Rain = 0
KSP2 160842Z 35008KT 07/07 A299 RMK A01 T00690069  RH  100%=      5-min Rain = 0
KSP2 160843Z 36007KT 07/07 A299 RMK A01 T00690069  RH  100%=      5-min Rain = 0
KSP2 160844Z 36008KT 07/07 A299 RMK A01 T00690070  RH  100%=      5-min Rain = 0
KSP2 160845Z 00009KT 07/07 A299 RMK A01 T00690069  RH  100%=      5-min Rain = 0
KSP2 160846Z 00008KT 07/07 A299 RMK A01 T00690069  RH  100%=      5-min Rain = 0
KSP2 160847Z 36008KT 07/07 A299 RMK A01 T00680068  RH  100%=      5-min Rain = 0
KSP2 160848Z 00007KT 07/07 A299 RMK A01 T00680068  RH  100%=      5-min Rain = 0
KSP2 160849Z 00008KT 07/07 A299 RMK A01 T00680068  RH  100%=      5-min Rain = 0
KSP2 160850Z 00007KT 07/07 A2991 RMK A01 T00680068  RH  100%=      5-min Rain = 0
KSP2 160851Z 35008KT 07/07 A2991 RMK A01 T00680068  RH  100%=      5-min Rain = 0
KSP2 160852Z 35009KT 07/07 A2991 RMK A01 T00680068  RH  100%=      5-min Rain = 0
KSP2 160853Z 36008KT 07/07 A2991 RMK A01 T00680068  RH  100%=      5-min Rain = 0
KSP2 160854Z 00008KT 07/07 A299 RMK A01 T00680068  RH  100%=      5-min Rain = 0
KSP2 160855Z 00008KT 07/07 A299 RMK A01 T00680068  RH  100%=      5-min Rain = 0
KSP2 160856Z 00011KT 07/07 A299 RMK A01 T00680068  RH  100%=      5-min Rain = 0
KSP2 160857Z 00012KT 07/07 A299 RMK A01 T00680068  RH  100%=      5-min Rain = 0
KSP2 160858Z 35010KT 07/07 A2991 RMK A01 T00670067  RH  100%=      5-min Rain = 0
KSP2 160859Z 36009KT 07/07 A2991 RMK A01 T00670067  RH  100%=      5-min Rain = 0
KSP2 160900Z 36011KT 07/07 A2991 RMK A01 T00670067  RH  100%=      5-min Rain = 0
KSP2 160901Z 35012KT 07/07 A2991 RMK A01 T00650065  RH  100%=      5-min Rain = 0.01
KSP2 160902Z 35011KT 07/07 A2991 RMK A01 T00650065  RH  100%=      5-min Rain = 0
KSP2 160903Z 35011KT 06/06 A2991 RMK A01 T00640064  RH  100%=      5-min Rain = 0
KSP2 160904Z 35009KT 06/06 A2991 RMK A01 T00630064  RH  100%=      5-min Rain = 0
KSP2 160905Z 36009KT 06/06 A2991 RMK A01 T00640064  RH  100%=      5-min Rain = 0
KSP2 160906Z 35009KT 06/06 A2991 RMK A01 T00640064  RH  100%=      5-min Rain = 0
KSP2 160907Z 35008KT 06/06 A2991 RMK A01 T00630064  RH  100%=      5-min Rain = 0
KSP2 160908Z 36009KT 06/06 A2991 RMK A01 T00630063  RH  100%=      5-min Rain = 0
KSP2 160909Z 36009KT 06/06 A2991 RMK A01 T00630063  RH  100%=      5-min Rain = 0
KSP2 160910Z 35009KT 06/06 A2991 RMK A01 T00630063  RH  100%=      5-min Rain = 0
KSP2 160911Z 35009KT 06/06 A2991 RMK A01 T00630063  RH  100%=      5-min Rain = 0
KSP2 160912Z 35008KT 06/06 A2991 RMK A01 T00630063  RH  100%=      5-min Rain = 0
KSP2 160913Z 35007KT 06/06 A299 RMK A01 T00630063  RH  100%=      5-min Rain = 0
KSP2 160914Z 36008KT 06/06 A299 RMK A01 T00630063  RH  100%=      5-min Rain = 0
KSP2 160915Z 35008KT 06/06 A299 RMK A01 T00630063  RH  100%=      5-min Rain = 0
KSP2 160916Z 36007KT 06/06 A299 RMK A01 T00620062  RH  100%=      5-min Rain = 0
KSP2 160917Z 36008KT 06/06 A299 RMK A01 T00620062  RH  100%=      5-min Rain = 0
KSP2 160918Z 01007KT 06/06 A299 RMK A01 T00620062  RH  100%=      5-min Rain = 0
KSP2 160919Z 00009KT 06/06 A299 RMK A01 T00620062  RH  100%=      5-min Rain = 0
KSP2 160920Z 00009KT 06/06 A299 RMK A01 T00620062  RH  100%=      5-min Rain = 0
KSP2 160921Z 00010KT 06/06 A299 RMK A01 T00610061  RH  100%=      5-min Rain = 0
KSP2 160922Z 00009KT 06/06 A299 RMK A01 T00610061  RH  100%=      5-min Rain = 0
KSP2 160923Z 01008KT 06/06 A299 RMK A01 T00610061  RH  100%=      5-min Rain = 0
KSP2 160924Z 01008KT 06/06 A299 RMK A01 T00610061  RH  100%=      5-min Rain = 0
KSP2 160925Z 01009KT 06/06 A299 RMK A01 T00610061  RH  100%=      5-min Rain = 0
KSP2 160926Z 00010KT 06/06 A299 RMK A01 T00610061  RH  100%=      5-min Rain = 0
KSP2 160927Z 00008KT 06/06 A299 RMK A01 T00610061  RH  100%=      5-min Rain = 0
KSP2 160928Z 01008KT 06/06 A299 RMK A01 T00610061  RH  100%=      5-min Rain = 0
KSP2 160929Z 00006KT 06/06 A299 RMK A01 T00610061  RH  100%=      5-min Rain = 0
KSP2 160930Z 00007KT 06/06 A299 RMK A01 T00610061  RH  100%=      5-min Rain = 0
KSP2 160931Z 00008KT 06/06 A299 RMK A01 T00610061  RH  100%=      5-min Rain = 0
KSP2 160932Z 36008KT 06/06 A299 RMK A01 T00610061  RH  100%=      5-min Rain = 0
KSP2 160933Z 00007KT 06/06 A299 RMK A01 T00610061  RH  100%=      5-min Rain = 0
KSP2 160934Z 36010KT 06/06 A299 RMK A01 T00610061  RH  100%=      5-min Rain = 0
KSP2 160935Z 36010KT 06/06 A299 RMK A01 T00610061  RH  100%=      5-min Rain = 0
KSP2 160936Z 36009KT 06/06 A299 RMK A01 T00610061  RH  100%=      5-min Rain = 0
KSP2 160937Z 00009KT 06/06 A299 RMK A01 T00610061  RH  100%=      5-min Rain = 0
KSP2 160938Z 00010KT 06/06 A299 RMK A01 T00610061  RH  100%=      5-min Rain = 0
KSP2 160939Z 36010KT 06/06 A299 RMK A01 T00610061  RH  100%=      5-min Rain = 0
KSP2 160940Z 35011KT 06/06 A299 RMK A01 T00610061  RH  100%=      5-min Rain = 0
KSP2 160941Z 36011KT 06/06 A299 RMK A01 T00600060  RH  100%=      5-min Rain = 0
KSP2 160942Z 36010KT 06/06 A299 RMK A01 T00600060  RH  100%=      5-min Rain = 0
KSP2 160943Z 35008KT 06/06 A299 RMK A01 T00600060  RH  100%=      5-min Rain = 0
KSP2 160944Z 00008KT 06/06 A299 RMK A01 T00610061  RH  100%=      5-min Rain = 0
KSP2 160945Z 36009KT 06/06 A299 RMK A01 T00610061  RH  100%=      5-min Rain = 0
KSP2 160946Z 00010KT 06/06 A299 RMK A01 T00600060  RH  100%=      5-min Rain = 0
KSP2 160947Z 00010KT 06/06 A299 RMK A01 T00610061  RH  100%=      5-min Rain = 0
KSP2 160948Z 00010KT 06/06 A299 RMK A01 T00610061  RH  100%=      5-min Rain = 0
KSP2 160949Z 36009KT 06/06 A299 RMK A01 T00600060  RH  100%=      5-min Rain = 0
KSP2 160950Z 01007KT 06/06 A2989 RMK A01 T00610061  RH  100%=      5-min Rain = 0
KSP2 160951Z 00008KT 06/06 A299 RMK A01 T00610061  RH  100%=      5-min Rain = 0
KSP2 160952Z 36009KT 06/06 A299 RMK A01 T00610061  RH  100%=      5-min Rain = 0
KSP2 160953Z 00011KT 06/06 A299 RMK A01 T00610061  RH  100%=      5-min Rain = 0
KSP2 160954Z 00011KT 06/06 A299 RMK A01 T00600060  RH  100%=      5-min Rain = 0
KSP2 160955Z 00011KT 06/06 A299 RMK A01 T00600060  RH  100%=      5-min Rain = 0
KSP2 160956Z 00011KT 06/06 A299 RMK A01 T00600060  RH  100%=      5-min Rain = 0
KSP2 160957Z 36011KT 06/06 A299 RMK A01 T00600060  RH  100%=      5-min Rain = 0
KSP2 160958Z 36010KT 06/06 A299 RMK A01 T00600060  RH  100%=      5-min Rain = 0
KSP2 160959Z 36009KT 06/06 A299 RMK A01 T00600060  RH  100%=      5-min Rain = 0
KSP2 161000Z 36010KT 06/06 A299 RMK A01 T00600060  RH  100%=      5-min Rain = 0
KSP2 161001Z 36009KT 06/06 A299 RMK A01 T00600060  RH  100%=      5-min Rain = 0
KSP2 161002Z 01008KT 06/06 A299 RMK A01 T00600060  RH  100%=      5-min Rain = 0
KSP2 161003Z 00008KT 06/06 A299 RMK A01 T00600060  RH  100%=      5-min Rain = 0
KSP2 161004Z 01010KT 06/06 A299 RMK A01 T00600060  RH  100%=      5-min Rain = 0
KSP2 161005Z 01010KT 06/06 A299 RMK A01 T00600060  RH  100%=      5-min Rain = 0
KSP2 161006Z 00010KT 06/06 A299 RMK A01 T00600060  RH  100%=      5-min Rain = 0
KSP2 161007Z 01009KT 06/06 A299 RMK A01 T00600060  RH  100%=      5-min Rain = 0
KSP2 161008Z 01010KT 06/06 A299 RMK A01 T00600060  RH  100%=      5-min Rain = 0
KSP2 161009Z 00008KT 06/06 A299 RMK A01 T00600060  RH  100%=      5-min Rain = 0
KSP2 161010Z 00008KT 06/06 A299 RMK A01 T00600060  RH  100%=      5-min Rain = 0
KSP2 161011Z 00011KT 06/06 A299 RMK A01 T00600060  RH  100%=      5-min Rain = 0
KSP2 161012Z 00010KT 06/06 A299 RMK A01 T00600060  RH  100%=      5-min Rain = 0
KSP2 161013Z 36008KT 06/06 A299 RMK A01 T00600060  RH  100%=      5-min Rain = 0
KSP2 161014Z 01009KT 06/06 A299 RMK A01 T00600060  RH  100%=      5-min Rain = 0
KSP2 161015Z 01010KT 06/06 A299 RMK A01 T00600060  RH  100%=      5-min Rain = 0
KSP2 161016Z 01009KT 06/06 A299 RMK A01 T00600060  RH  100%=      5-min Rain = 0
KSP2 161017Z 01008KT 06/06 A299 RMK A01 T00600060  RH  100%=      5-min Rain = 0
KSP2 161018Z 01007KT 06/06 A299 RMK A01 T00600060  RH  100%=      5-min Rain = 0
KSP2 161019Z 01007KT 06/06 A299 RMK A01 T00600060  RH  100%=      5-min Rain = 0
KSP2 161020Z 02006KT 06/06 A299 RMK A01 T00600060  RH  100%=      5-min Rain = 0
KSP2 161021Z 01006KT 06/06 A299 RMK A01 T00600061  RH  100%=      5-min Rain = 0
KSP2 161022Z 02006KT 06/06 A299 RMK A01 T00600060  RH  100%=      5-min Rain = 0
KSP2 161023Z 01009KT 06/06 A299 RMK A01 T00600060  RH  100%=      5-min Rain = 0
KSP2 161024Z 01010KT 06/06 A299 RMK A01 T00600060  RH  100%=      5-min Rain = 0
KSP2 161025Z 01009KT 06/06 A299 RMK A01 T00600061  RH  100%=      5-min Rain = 0
KSP2 161026Z 01009KT 06/06 A2989 RMK A01 T00600060  RH  100%=      5-min Rain = 0
KSP2 161027Z 02007KT 06/06 A2989 RMK A01 T00600060  RH  100%=      5-min Rain = 0
KSP2 161028Z 02007KT 06/06 A2989 RMK A01 T00610061  RH  100%=      5-min Rain = 0
KSP2 161029Z 02008KT 06/06 A299 RMK A01 T00600060  RH  100%=      5-min Rain = 0
KSP2 161030Z 02007KT 06/06 A299 RMK A01 T00610061  RH  100%=      5-min Rain = 0
KSP2 161031Z 01009KT 06/06 A299 RMK A01 T00600060  RH  100%=      5-min Rain = 0
KSP2 161032Z 01008KT 06/06 A299 RMK A01 T00600060  RH  100%=      5-min Rain = 0
KSP2 161033Z 01008KT 06/06 A299 RMK A01 T00600060  RH  100%=      5-min Rain = 0
KSP2 161034Z 02007KT 06/06 A299 RMK A01 T00600060  RH  100%=      5-min Rain = 0
KSP2 161035Z 02009KT 06/06 A299 RMK A01 T00600060  RH  100%=      5-min Rain = 0
KSP2 161036Z 01008KT 06/06 A299 RMK A01 T00600060  RH  100%=      5-min Rain = 0
KSP2 161037Z 02009KT 06/06 A299 RMK A01 T00600060  RH  100%=      5-min Rain = 0
KSP2 161038Z 02009KT 06/06 A299 RMK A01 T00600060  RH  100%=      5-min Rain = 0
KSP2 161039Z 02009KT 06/06 A299 RMK A01 T00600060  RH  100%=      5-min Rain = 0
KSP2 161040Z 01009KT 06/06 A299 RMK A01 T00600060  RH  100%=      5-min Rain = 0
KSP2 161041Z 01008KT 06/06 A299 RMK A01 T00600060  RH  100%=      5-min Rain = 0
KSP2 161042Z 01009KT 06/06 A299 RMK A01 T00600060  RH  100%=      5-min Rain = 0
KSP2 161043Z 02008KT 06/06 A299 RMK A01 T00600060  RH  100%=      5-min Rain = 0
KSP2 161044Z 02008KT 06/06 A299 RMK A01 T00600060  RH  100%=      5-min Rain = 0
KSP2 161045Z 02007KT 06/06 A299 RMK A01 T00600060  RH  100%=      5-min Rain = 0
KSP2 161046Z 01007KT 06/06 A299 RMK A01 T00600060  RH  100%=      5-min Rain = 0
KSP2 161047Z 02006KT 06/06 A2989 RMK A01 T00600060  RH  100%=      5-min Rain = 0
KSP2 161048Z 02007KT 06/06 A2989 RMK A01 T00600060  RH  100%=      5-min Rain = 0
KSP2 161049Z 02007KT 06/06 A2989 RMK A01 T00600060  RH  100%=      5-min Rain = 0
KSP2 161050Z 02008KT 06/06 A2989 RMK A01 T00600060  RH  100%=      5-min Rain = 0.01
KSP2 161051Z 02008KT 06/06 A2989 RMK A01 T00600060  RH  100%=      5-min Rain = 0
KSP2 161052Z 02005KT 06/06 A2989 RMK A01 T00600060  RH  100%=      5-min Rain = 0
KSP2 161053Z 03005KT 06/06 A2989 RMK A01 T00600060  RH  100%=      5-min Rain = 0
KSP2 161054Z 03005KT 06/06 A2989 RMK A01 T00600060  RH  100%=      5-min Rain = 0
KSP2 161055Z 02005KT 06/06 A2989 RMK A01 T00610061  RH  100%=      5-min Rain = 0
KSP2 161056Z 03005KT 06/06 A2989 RMK A01 T00600060  RH  100%=      5-min Rain = 0
KSP2 161057Z 04006KT 06/06 A2989 RMK A01 T00600060  RH  100%=      5-min Rain = 0
KSP2 161058Z 04006KT 06/06 A2989 RMK A01 T00600060  RH  100%=      5-min Rain = 0
KSP2 161059Z 05005KT 06/06 A2989 RMK A01 T00600060  RH  100%=      5-min Rain = 0
KSP2 161100Z 05005KT 06/06 A2989 RMK A01 T00600061  RH  100%=      5-min Rain = 0
KSP2 161101Z 06004KT 06/06 A2989 RMK A01 T00600060  RH  100%=      5-min Rain = 0
KSP2 161102Z 06005KT 06/06 A2989 RMK A01 T00600060  RH  100%=      5-min Rain = 0
KSP2 161103Z 05006KT 06/06 A2989 RMK A01 T00610061  RH  100%=      5-min Rain = 0
KSP2 161104Z 05005KT 06/06 A2989 RMK A01 T00600060  RH  100%=      5-min Rain = 0
KSP2 161105Z 05006KT 06/06 A2989 RMK A01 T00600060  RH  100%=      5-min Rain = 0
KSP2 161106Z 04006KT 06/06 A2989 RMK A01 T00600061  RH  100%=      5-min Rain = 0
KSP2 161107Z 05005KT 06/06 A2989 RMK A01 T00600060  RH  100%=      5-min Rain = 0
KSP2 161108Z 05004KT 06/06 A2989 RMK A01 T00600061  RH  100%=      5-min Rain = 0
KSP2 161109Z 05004KT 06/06 A2989 RMK A01 T00600060  RH  100%=      5-min Rain = 0
KSP2 161110Z 05004KT 06/06 A2989 RMK A01 T00600061  RH  100%=      5-min Rain = 0
KSP2 161111Z 06005KT 06/06 A2989 RMK A01 T00600060  RH  100%=      5-min Rain = 0
KSP2 161112Z 06006KT 06/06 A2989 RMK A01 T00600060  RH  100%=      5-min Rain = 0
KSP2 161113Z 05005KT 06/06 A2989 RMK A01 T00610061  RH  100%=      5-min Rain = 0
KSP2 161114Z 05005KT 06/06 A2989 RMK A01 T00600060  RH  100%=      5-min Rain = 0
KSP2 161115Z 06005KT 06/06 A2989 RMK A01 T00600060  RH  100%=      5-min Rain = 0
KSP2 161116Z 06005KT 06/06 A2989 RMK A01 T00600060  RH  100%=      5-min Rain = 0
KSP2 161117Z 06005KT 06/06 A2989 RMK A01 T00600060  RH  100%=      5-min Rain = 0
KSP2 161118Z 06005KT 06/06 A2989 RMK A01 T00610061  RH  100%=      5-min Rain = 0
KSP2 161119Z 06005KT 06/06 A2989 RMK A01 T00610061  RH  100%=      5-min Rain = 0
KSP2 161120Z 06006KT 06/06 A2989 RMK A01 T00610061  RH  100%=      5-min Rain = 0
KSP2 161121Z 05004KT 06/06 A2988 RMK A01 T00610061  RH  100%=      5-min Rain = 0
KSP2 161122Z 06004KT 06/06 A2988 RMK A01 T00610061  RH  100%=      5-min Rain = 0
KSP2 161123Z 07005KT 06/06 A2988 RMK A01 T00610061  RH  100%=      5-min Rain = 0
KSP2 161124Z 06004KT 06/06 A2988 RMK A01 T00610061  RH  100%=      5-min Rain = 0
KSP2 161125Z 07005KT 06/06 A2988 RMK A01 T00610061  RH  100%=      5-min Rain = 0
KSP2 161126Z 06006KT 06/06 A2988 RMK A01 T00610061  RH  100%=      5-min Rain = 0
KSP2 161127Z 07005KT 06/06 A2988 RMK A01 T00610061  RH  100%=      5-min Rain = 0
KSP2 161128Z 06005KT 06/06 A2988 RMK A01 T00610061  RH  100%=      5-min Rain = 0
KSP2 161129Z 07005KT 06/06 A2988 RMK A01 T00610061  RH  100%=      5-min Rain = 0
KSP2 161130Z 06005KT 06/06 A2988 RMK A01 T00610061  RH  100%=      5-min Rain = 0
KSP2 161131Z 06005KT 06/06 A2988 RMK A01 T00610061  RH  100%=      5-min Rain = 0
KSP2 161132Z 06006KT 06/06 A2988 RMK A01 T00610061  RH  100%=      5-min Rain = 0
KSP2 161133Z 06006KT 06/06 A2988 RMK A01 T00610061  RH  100%=      5-min Rain = 0
KSP2 161134Z 06006KT 06/06 A2988 RMK A01 T00610061  RH  100%=      5-min Rain = 0
KSP2 161135Z 05005KT 06/06 A2988 RMK A01 T00610061  RH  100%=      5-min Rain = 0
KSP2 161136Z 07006KT 06/06 A2988 RMK A01 T00610061  RH  100%=      5-min Rain = 0
KSP2 161137Z 06005KT 06/06 A2988 RMK A01 T00600060  RH  100%=      5-min Rain = 0
KSP2 161138Z 06006KT 06/06 A2988 RMK A01 T00610061  RH  100%=      5-min Rain = 0
KSP2 161139Z 05006KT 06/06 A2988 RMK A01 T00610061  RH  100%=      5-min Rain = 0
KSP2 161140Z 06005KT 06/06 A2988 RMK A01 T00600060  RH  100%=      5-min Rain = 0
KSP2 161141Z 07006KT 06/06 A2988 RMK A01 T00600060  RH  100%=      5-min Rain = 0
KSP2 161142Z 06006KT 06/06 A2988 RMK A01 T00600060  RH  100%=      5-min Rain = 0
KSP2 161143Z 05005KT 06/06 A2988 RMK A01 T00600060  RH  100%=      5-min Rain = 0
KSP2 161144Z 05005KT 06/06 A2988 RMK A01 T00590060  RH  100%=      5-min Rain = 0
KSP2 161145Z 05005KT 06/06 A2988 RMK A01 T00590059  RH  100%=      5-min Rain = 0
KSP2 161146Z 07006KT 06/06 A2988 RMK A01 T00600060  RH  100%=      5-min Rain = 0
KSP2 161147Z 06007KT 06/06 A2988 RMK A01 T00590059  RH  100%=      5-min Rain = 0
KSP2 161148Z 06006KT 06/06 A2988 RMK A01 T00590059  RH  100%=      5-min Rain = 0
KSP2 161149Z 06005KT 06/06 A2988 RMK A01 T00590059  RH  100%=      5-min Rain = 0
KSP2 161150Z 07006KT 06/06 A2988 RMK A01 T00590059  RH  100%=      5-min Rain = 0
KSP2 161151Z 07005KT 06/06 A2988 RMK A01 T00590059  RH  100%=      5-min Rain = 0
KSP2 161152Z 07004KT 06/06 A2988 RMK A01 T00590059  RH  100%=      5-min Rain = 0
KSP2 161153Z 06003KT 06/06 A2988 RMK A01 T00590059  RH  100%=      5-min Rain = 0
KSP2 161154Z 06003KT 06/06 A2988 RMK A01 T00590059  RH  100%=      5-min Rain = 0
KSP2 161155Z 07003KT 06/06 A2988 RMK A01 T00590059  RH  100%=      5-min Rain = 0
KSP2 161156Z 06003KT 06/06 A2988 RMK A01 T00590059  RH  100%=      5-min Rain = 0
KSP2 161157Z 07004KT 06/06 A2988 RMK A01 T00590059  RH  100%=      5-min Rain = 0
KSP2 161158Z 07004KT 06/06 A2988 RMK A01 T00590060  RH  100%=      5-min Rain = 0
KSP2 161159Z 05005KT 06/06 A2988 RMK A01 T00590059  RH  100%=      5-min Rain = 0
KSP2 161200Z 06005KT 06/06 A2988 RMK A01 T00590059  RH  100%=      5-min Rain = 0
KSP2 161201Z 07004KT 06/06 A2988 RMK A01 T00590060  RH  100%=      5-min Rain = 0
KSP2 161202Z 07004KT 06/06 A2988 RMK A01 T00590060  RH  100%=      5-min Rain = 0
KSP2 161203Z 07003KT 06/06 A2988 RMK A01 T00600060  RH  100%=      5-min Rain = 0
KSP2 161204Z 08004KT 06/06 A2988 RMK A01 T00600060  RH  100%=      5-min Rain = 0
KSP2 161205Z 08004KT 06/06 A2988 RMK A01 T00590059  RH  100%=      5-min Rain = 0
KSP2 161206Z 08003KT 06/06 A2988 RMK A01 T00590059  RH  100%=      5-min Rain = 0
KSP2 161207Z 07002KT 06/06 A2988 RMK A01 T00590059  RH  100%=      5-min Rain = 0
KSP2 161208Z 07004KT 06/06 A2988 RMK A01 T00590059  RH  100%=      5-min Rain = 0
KSP2 161209Z 06004KT 06/06 A2988 RMK A01 T00580058  RH  100%=      5-min Rain = 0
KSP2 161210Z 07004KT 06/06 A2988 RMK A01 T00580058  RH  100%=      5-min Rain = 0
KSP2 161211Z 07002KT 06/06 A2988 RMK A01 T00580058  RH  100%=      5-min Rain = 0
KSP2 161212Z 06002KT 06/06 A2988 RMK A01 T00590059  RH  100%=      5-min Rain = 0
KSP2 161213Z 06002KT 06/06 A2988 RMK A01 T00580058  RH  100%=      5-min Rain = 0
KSP2 161214Z 11003KT 06/06 A2988 RMK A01 T00580059  RH  100%=      5-min Rain = 0
KSP2 161215Z 11004KT 06/06 A2988 RMK A01 T00590059  RH  100%=      5-min Rain = 0
KSP2 161216Z 12004KT 06/06 A2988 RMK A01 T00590059  RH  100%=      5-min Rain = 0
KSP2 161217Z 11003KT 06/06 A2988 RMK A01 T00590059  RH  100%=      5-min Rain = 0
KSP2 161218Z 10002KT 06/06 A2988 RMK A01 T00580058  RH  100%=      5-min Rain = 0
KSP2 161219Z 13001KT 06/06 A2988 RMK A01 T00580058  RH  100%=      5-min Rain = 0
KSP2 161220Z 14001KT 06/06 A2988 RMK A01 T00580058  RH  100%=      5-min Rain = 0
KSP2 161221Z 13001KT 06/06 A2988 RMK A01 T00580058  RH  100%=      5-min Rain = 0
KSP2 161222Z 14001KT 06/06 A2988 RMK A01 T00580058  RH  100%=      5-min Rain = 0
KSP2 161223Z 13002KT 06/06 A2988 RMK A01 T00580058  RH  100%=      5-min Rain = 0
KSP2 161224Z 11002KT 06/06 A2988 RMK A01 T00580058  RH  100%=      5-min Rain = 0
KSP2 161225Z 12002KT 06/06 A2988 RMK A01 T00580058  RH  100%=      5-min Rain = 0
KSP2 161226Z 11001KT 06/06 A2988 RMK A01 T00580058  RH  100%=      5-min Rain = 0
KSP2 161227Z 10002KT 06/06 A2988 RMK A01 T00580058  RH  100%=      5-min Rain = 0
KSP2 161228Z 09002KT 06/06 A2988 RMK A01 T00580058  RH  100%=      5-min Rain = 0
KSP2 161229Z 10001KT 06/06 A2988 RMK A01 T00580058  RH  100%=      5-min Rain = 0
KSP2 161230Z 10001KT 06/06 A2988 RMK A01 T00570057  RH  100%=      5-min Rain = 0
KSP2 161231Z 10001KT 06/06 A2988 RMK A01 T00570057  RH  100%=      5-min Rain = 0
KSP2 161232Z 14001KT 06/06 A2988 RMK A01 T00570057  RH  100%=      5-min Rain = 0
KSP2 161233Z 13001KT 06/06 A2988 RMK A01 T00570057  RH  100%=      5-min Rain = 0
KSP2 161234Z 13000KT 06/06 A2988 RMK A01 T00570057  RH  100%=      5-min Rain = 0
KSP2 161235Z 00000KT 06/06 A2989 RMK A01 T00570057  RH  100%=      5-min Rain = 0
KSP2 161236Z 00000KT 06/06 A2989 RMK A01 T00570057  RH  100%=      5-min Rain = 0
KSP2 161237Z 03001KT 06/06 A2989 RMK A01 T00570057  RH  100%=      5-min Rain = 0
KSP2 161238Z 02003KT 06/06 A2989 RMK A01 T00570057  RH  100%=      5-min Rain = 0
KSP2 161239Z 04004KT 06/06 A2989 RMK A01 T00580058  RH  100%=      5-min Rain = 0
KSP2 161240Z 03004KT 06/06 A2989 RMK A01 T00580058  RH  100%=      5-min Rain = 0
KSP2 161241Z 02005KT 06/06 A2989 RMK A01 T00580058  RH  100%=      5-min Rain = 0
KSP2 161242Z 02005KT 06/06 A299 RMK A01 T00580058  RH  100%=      5-min Rain = 0
KSP2 161243Z 03005KT 06/06 A299 RMK A01 T00580058  RH  100%=      5-min Rain = 0
KSP2 161244Z 02006KT 06/06 A299 RMK A01 T00580058  RH  100%=      5-min Rain = 0
KSP2 161245Z 03005KT 06/06 A299 RMK A01 T00580058  RH  100%=      5-min Rain = 0
KSP2 161246Z 04005KT 06/06 A299 RMK A01 T00580058  RH  100%=      5-min Rain = 0
KSP2 161247Z 03005KT 06/06 A2989 RMK A01 T00580058  RH  100%=      5-min Rain = 0
KSP2 161248Z 01007KT 06/06 A299 RMK A01 T00580058  RH  100%=      5-min Rain = 0
KSP2 161249Z 02007KT 06/06 A299 RMK A01 T00580058  RH  100%=      5-min Rain = 0
KSP2 161250Z 03006KT 06/06 A299 RMK A01 T00580058  RH  100%=      5-min Rain = 0
KSP2 161251Z 02007KT 06/06 A299 RMK A01 T00570058  RH  100%=      5-min Rain = 0
KSP2 161252Z 01006KT 06/06 A299 RMK A01 T00580058  RH  100%=      5-min Rain = 0
KSP2 161253Z 01006KT 06/06 A299 RMK A01 T00570057  RH  100%=      5-min Rain = 0
KSP2 161254Z 00007KT 06/06 A299 RMK A01 T00570057  RH  100%=      5-min Rain = 0
KSP2 161255Z 36007KT 06/06 A299 RMK A01 T00570057  RH  100%=      5-min Rain = 0
KSP2 161256Z 36006KT 06/06 A299 RMK A01 T00570057  RH  100%=      5-min Rain = 0
KSP2 161257Z 01007KT 06/06 A299 RMK A01 T00570057  RH  100%=      5-min Rain = 0
KSP2 161258Z 02005KT 06/06 A299 RMK A01 T00570057  RH  100%=      5-min Rain = 0
KSP2 161259Z 02005KT 06/06 A299 RMK A01 T00570057  RH  100%=      5-min Rain = 0
KSP2 161300Z 01005KT 06/06 A299 RMK A01 T00580058  RH  100%=      5-min Rain = 0
KSP2 161301Z 01006KT 06/06 A299 RMK A01 T00580058  RH  100%=      5-min Rain = 0
KSP2 161302Z 02007KT 06/06 A299 RMK A01 T00580058  RH  100%=      5-min Rain = 0
KSP2 161303Z 01007KT 06/06 A299 RMK A01 T00580058  RH  100%=      5-min Rain = 0
KSP2 161304Z 01007KT 06/06 A2991 RMK A01 T00580058  RH  100%=      5-min Rain = 0
KSP2 161305Z 01005KT 06/06 A2991 RMK A01 T00580058  RH  100%=      5-min Rain = 0
KSP2 161306Z 01007KT 06/06 A2991 RMK A01 T00570057  RH  100%=      5-min Rain = 0
KSP2 161307Z 01006KT 06/06 A2991 RMK A01 T00580058  RH  100%=      5-min Rain = 0
KSP2 161308Z 01006KT 06/06 A2991 RMK A01 T00580058  RH  100%=      5-min Rain = 0
KSP2 161309Z 00005KT 06/06 A2991 RMK A01 T00580058  RH  100%=      5-min Rain = 0
KSP2 161310Z 00006KT 06/06 A2991 RMK A01 T00580058  RH  100%=      5-min Rain = 0
KSP2 161311Z 00006KT 06/06 A2991 RMK A01 T00580058  RH  100%=      5-min Rain = 0
KSP2 161312Z 01007KT 06/06 A2991 RMK A01 T00580058  RH  100%=      5-min Rain = 0
KSP2 161313Z 01007KT 06/06 A2991 RMK A01 T00580058  RH  100%=      5-min Rain = 0
KSP2 161314Z 02006KT 06/06 A2991 RMK A01 T00580058  RH  100%=      5-min Rain = 0
KSP2 161315Z 02006KT 06/06 A2991 RMK A01 T00570058  RH  100%=      5-min Rain = 0
KSP2 161316Z 02005KT 06/06 A2991 RMK A01 T00580058  RH  100%=      5-min Rain = 0
KSP2 161317Z 03005KT 06/06 A2991 RMK A01 T00580058  RH  100%=      5-min Rain = 0
KSP2 161318Z 03007KT 06/06 A2991 RMK A01 T00580058  RH  100%=      5-min Rain = 0
KSP2 161319Z 03006KT 06/06 A2991 RMK A01 T00580058  RH  100%=      5-min Rain = 0
KSP2 161320Z 03006KT 06/06 A2991 RMK A01 T00580058  RH  100%=      5-min Rain = 0
KSP2 161321Z 02006KT 06/06 A2991 RMK A01 T00580058  RH  100%=      5-min Rain = 0
KSP2 161322Z 02007KT 06/06 A2991 RMK A01 T00580058  RH  100%=      5-min Rain = 0
KSP2 161323Z 01008KT 06/06 A2991 RMK A01 T00590059  RH  100%=      5-min Rain = 0
KSP2 161324Z 02008KT 06/06 A2991 RMK A01 T00590059  RH  100%=      5-min Rain = 0
KSP2 161325Z 01006KT 06/06 A2991 RMK A01 T00590059  RH  100%=      5-min Rain = 0
KSP2 161326Z 01006KT 06/06 A2991 RMK A01 T00600060  RH  100%=      5-min Rain = 0
KSP2 161327Z 01009KT 06/06 A2991 RMK A01 T00600060  RH  100%=      5-min Rain = 0
KSP2 161328Z 01008KT 06/06 A2991 RMK A01 T00590059  RH  100%=      5-min Rain = 0
KSP2 161329Z 00008KT 06/06 A2991 RMK A01 T00590059  RH  100%=      5-min Rain = 0
KSP2 161330Z 00008KT 06/06 A2991 RMK A01 T00590059  RH  100%=      5-min Rain = 0
KSP2 161331Z 00006KT 06/06 A2992 RMK A01 T00590059  RH  100%=      5-min Rain = 0
KSP2 161332Z 02005KT 06/06 A2991 RMK A01 T00590059  RH  100%=      5-min Rain = 0
KSP2 161333Z 03004KT 06/06 A2992 RMK A01 T00590059  RH  100%=      5-min Rain = 0
KSP2 161334Z 01005KT 06/06 A2992 RMK A01 T00590059  RH  100%=      5-min Rain = 0
KSP2 161335Z 00007KT 06/06 A2991 RMK A01 T00590059  RH  100%=      5-min Rain = 0
KSP2 161336Z 00007KT 06/06 A2992 RMK A01 T00590059  RH  100%=      5-min Rain = 0
KSP2 161337Z 00007KT 06/06 A2992 RMK A01 T00580058  RH  100%=      5-min Rain = 0
KSP2 161338Z 00007KT 06/06 A2992 RMK A01 T00580058  RH  100%=      5-min Rain = 0
KSP2 161339Z 36006KT 06/06 A2992 RMK A01 T00580058  RH  100%=      5-min Rain = 0
KSP2 161340Z 00005KT 06/06 A2992 RMK A01 T00570057  RH  100%=      5-min Rain = 0
KSP2 161341Z 35005KT 06/06 A2992 RMK A01 T00570057  RH  100%=      5-min Rain = 0
KSP2 161342Z 35004KT 06/06 A2992 RMK A01 T00580058  RH  100%=      5-min Rain = 0
KSP2 161343Z 36003KT 06/06 A2992 RMK A01 T00570057  RH  100%=      5-min Rain = 0
KSP2 161344Z 34003KT 06/06 A2992 RMK A01 T00570057  RH  100%=      5-min Rain = 0
KSP2 161345Z 34004KT 06/06 A2992 RMK A01 T00580058  RH  100%=      5-min Rain = 0
KSP2 161346Z 34004KT 06/06 A2992 RMK A01 T00590059  RH  100%=      5-min Rain = 0
KSP2 161347Z 36005KT 06/06 A2992 RMK A01 T00590059  RH  100%=      5-min Rain = 0
KSP2 161348Z 00006KT 06/06 A2992 RMK A01 T00590059  RH  100%=      5-min Rain = 0
KSP2 161349Z 01005KT 06/06 A2992 RMK A01 T00590059  RH  100%=      5-min Rain = 0
KSP2 161350Z 00007KT 06/06 A2992 RMK A01 T00590059  RH  100%=      5-min Rain = 0
KSP2 161351Z 01008KT 06/06 A2992 RMK A01 T00590059  RH  100%=      5-min Rain = 0
KSP2 161352Z 01007KT 06/06 A2992 RMK A01 T00580058  RH  100%=      5-min Rain = 0
KSP2 161353Z 01007KT 06/06 A2992 RMK A01 T00580058  RH  100%=      5-min Rain = 0
KSP2 161354Z 01008KT 06/06 A2993 RMK A01 T00580058  RH  100%=      5-min Rain = 0
KSP2 161355Z 00009KT 06/06 A2993 RMK A01 T00570057  RH  100%=      5-min Rain = 0
KSP2 161356Z 01008KT 06/06 A2993 RMK A01 T00560056  RH  100%=      5-min Rain = 0
KSP2 161357Z 00008KT 06/06 A2993 RMK A01 T00570057  RH  100%=      5-min Rain = 0
KSP2 161358Z 36007KT 06/06 A2993 RMK A01 T00570057  RH  100%=      5-min Rain = 0
KSP2 161359Z 34007KT 06/06 A2993 RMK A01 T00580058  RH  100%=      5-min Rain = 0
KSP2 161400Z 34009KT 06/06 A2993 RMK A01 T00580058  RH  100%=      5-min Rain = 0
KSP2 161401Z 34007KT 06/06 A2993 RMK A01 T00580058  RH  100%=      5-min Rain = 0
KSP2 161402Z 35008KT 06/06 A2993 RMK A01 T00580058  RH  100%=      5-min Rain = 0
KSP2 161403Z 35008KT 06/06 A2993 RMK A01 T00580058  RH  100%=      5-min Rain = 0
KSP2 161404Z 34008KT 06/06 A2993 RMK A01 T00570057  RH  100%=      5-min Rain = 0
KSP2 161405Z 35008KT 06/06 A2993 RMK A01 T00570057  RH  100%=      5-min Rain = 0
KSP2 161406Z 35007KT 06/06 A2993 RMK A01 T00580058  RH  100%=      5-min Rain = 0
KSP2 161407Z 00007KT 06/06 A2993 RMK A01 T00580058  RH  100%=      5-min Rain = 0
KSP2 161408Z 35007KT 06/06 A2993 RMK A01 T00580058  RH  100%=      5-min Rain = 0
KSP2 161409Z 33006KT 06/06 A2993 RMK A01 T00580058  RH  100%=      5-min Rain = 0
KSP2 161410Z 33005KT 06/06 A2993 RMK A01 T00580058  RH  100%=      5-min Rain = 0
KSP2 161411Z 33006KT 06/06 A2993 RMK A01 T00590059  RH  100%=      5-min Rain = 0
KSP2 161412Z 34008KT 06/06 A2993 RMK A01 T00600060  RH  100%=      5-min Rain = 0
KSP2 161413Z 35008KT 06/06 A2993 RMK A01 T00590059  RH  100%=      5-min Rain = 0
KSP2 161414Z 34008KT 06/06 A2993 RMK A01 T00590059  RH  100%=      5-min Rain = 0
KSP2 161415Z 35007KT 06/06 A2993 RMK A01 T00590059  RH  100%=      5-min Rain = 0
KSP2 161416Z 35007KT 06/06 A2993 RMK A01 T00590059  RH  100%=      5-min Rain = 0
KSP2 161417Z 35007KT 06/06 A2993 RMK A01 T00590059  RH  100%=      5-min Rain = 0
KSP2 161418Z 35008KT 06/06 A2994 RMK A01 T00590059  RH  100%=      5-min Rain = 0
KSP2 161419Z 36008KT 06/06 A2994 RMK A01 T00590059  RH  100%=      5-min Rain = 0
KSP2 161420Z 35008KT 06/06 A2994 RMK A01 T00590059  RH  100%=      5-min Rain = 0
KSP2 161421Z 34006KT 06/06 A2994 RMK A01 T00590059  RH  100%=      5-min Rain = 0
KSP2 161422Z 33009KT 06/06 A2994 RMK A01 T00590059  RH  100%=      5-min Rain = 0
KSP2 161423Z 33009KT 06/06 A2994 RMK A01 T00600060  RH  100%=      5-min Rain = 0
KSP2 161424Z 33009KT 06/06 A2994 RMK A01 T00600060  RH  100%=      5-min Rain = 0
KSP2 161425Z 35007KT 06/06 A2994 RMK A01 T00600060  RH  100%=      5-min Rain = 0
KSP2 161426Z 36007KT 06/06 A2994 RMK A01 T00600060  RH  100%=      5-min Rain = 0
KSP2 161427Z 36007KT 06/06 A2994 RMK A01 T00600060  RH  100%=      5-min Rain = 0
KSP2 161428Z 36007KT 06/06 A2994 RMK A01 T00600060  RH  100%=      5-min Rain = 0
KSP2 161429Z 36007KT 06/06 A2994 RMK A01 T00600060  RH  100%=      5-min Rain = 0
KSP2 161430Z 33006KT 06/06 A2994 RMK A01 T00600060  RH  100%=      5-min Rain = 0
KSP2 161431Z 33007KT 06/06 A2994 RMK A01 T00600060  RH  100%=      5-min Rain = 0
KSP2 161432Z 32007KT 06/06 A2994 RMK A01 T00600060  RH  100%=      5-min Rain = 0
KSP2 161433Z 32007KT 06/06 A2994 RMK A01 T00600060  RH  100%=      5-min Rain = 0
KSP2 161434Z 33006KT 06/06 A2994 RMK A01 T00600060  RH  100%=      5-min Rain = 0
KSP2 161435Z 33005KT 06/06 A2994 RMK A01 T00590059  RH  100%=      5-min Rain = 0
KSP2 161436Z 33004KT 06/06 A2994 RMK A01 T00600060  RH  100%=      5-min Rain = 0
KSP2 161437Z 32005KT 06/06 A2994 RMK A01 T00610062  RH  100%=      5-min Rain = 0
KSP2 161438Z 32005KT 06/06 A2994 RMK A01 T00610061  RH  100%=      5-min Rain = 0
KSP2 161439Z 33005KT 06/06 A2994 RMK A01 T00620062  RH  100%=      5-min Rain = 0
KSP2 161440Z 34004KT 06/06 A2994 RMK A01 T00620062  RH  100%=      5-min Rain = 0
KSP2 161441Z 33004KT 06/06 A2994 RMK A01 T00620062  RH  100%=      5-min Rain = 0
KSP2 161442Z 33007KT 06/06 A2994 RMK A01 T00630063  RH  100%=      5-min Rain = 0
KSP2 161443Z 32007KT 06/06 A2994 RMK A01 T00630063  RH  100%=      5-min Rain = 0
KSP2 161444Z 33006KT 06/06 A2994 RMK A01 T00630063  RH  100%=      5-min Rain = 0
KSP2 161445Z 33005KT 06/06 A2994 RMK A01 T00620062  RH  100%=      5-min Rain = 0
KSP2 161446Z 33006KT 06/06 A2994 RMK A01 T00640064  RH  100%=      5-min Rain = 0
KSP2 161447Z 33004KT 06/06 A2994 RMK A01 T00640064  RH  100%=      5-min Rain = 0
KSP2 161448Z 32004KT 06/06 A2994 RMK A01 T00640064  RH  100%=      5-min Rain = 0
KSP2 161449Z 32005KT 06/06 A2995 RMK A01 T00640064  RH  100%=      5-min Rain = 0
KSP2 161450Z 32006KT 07/07 A2995 RMK A01 T00650065  RH  100%=      5-min Rain = 0
KSP2 161451Z 32005KT 06/06 A2995 RMK A01 T00640064  RH  100%=      5-min Rain = 0
KSP2 161452Z 34004KT 06/06 A2994 RMK A01 T00640064  RH  100%=      5-min Rain = 0
KSP2 161453Z 35003KT 06/06 A2994 RMK A01 T00640064  RH  100%=      5-min Rain = 0
KSP2 161454Z 34004KT 06/06 A2994 RMK A01 T00640064  RH  100%=      5-min Rain = 0
KSP2 161455Z 34004KT 06/06 A2994 RMK A01 T00640064  RH  100%=      5-min Rain = 0
KSP2 161456Z 35003KT 06/06 A2994 RMK A01 T00640064  RH  100%=      5-min Rain = 0
KSP2 161457Z 35002KT 06/06 A2994 RMK A01 T00630063  RH  100%=      5-min Rain = 0
KSP2 161458Z 34003KT 06/06 A2994 RMK A01 T00630063  RH  100%=      5-min Rain = 0
KSP2 161459Z 32005KT 07/07 A2994 RMK A01 T00650065  RH  100%=      5-min Rain = 0
KSP2 161500Z 32004KT 07/07 A2994 RMK A01 T00650065  RH  100%=      5-min Rain = 0
KSP2 161501Z 31003KT 07/07 A2994 RMK A01 T00660066  RH  100%=      5-min Rain = 0
KSP2 161502Z 31004KT 07/07 A2994 RMK A01 T00670067  RH  100%=      5-min Rain = 0
KSP2 161503Z 32005KT 07/07 A2994 RMK A01 T00690069  RH  100%=      5-min Rain = 0
KSP2 161504Z 31006KT 07/07 A2994 RMK A01 T00690069  RH  100%=      5-min Rain = 0
KSP2 161505Z 33006KT 07/07 A2995 RMK A01 T00680068  RH  100%=      5-min Rain = 0
KSP2 161506Z 33005KT 07/07 A2995 RMK A01 T00680068  RH  100%=      5-min Rain = 0
KSP2 161507Z 32005KT 07/07 A2994 RMK A01 T00680068  RH  100%=      5-min Rain = 0
KSP2 161508Z 32006KT 07/07 A2994 RMK A01 T00700070  RH  100%=      5-min Rain = 0
KSP2 161509Z 31007KT 07/07 A2994 RMK A01 T00700070  RH  100%=      5-min Rain = 0
KSP2 161510Z 31007KT 07/07 A2994 RMK A01 T00700070  RH  100%=      5-min Rain = 0
KSP2 161511Z 31007KT 07/07 A2994 RMK A01 T00700070  RH  100%=      5-min Rain = 0
KSP2 161512Z 31007KT 07/07 A2994 RMK A01 T00710071  RH  100%=      5-min Rain = 0
KSP2 161513Z 32008KT 07/07 A2994 RMK A01 T00710071  RH  100%=      5-min Rain = 0
KSP2 161514Z 32007KT 07/07 A2994 RMK A01 T00710071  RH  100%=      5-min Rain = 0
KSP2 161515Z 31006KT 07/07 A2994 RMK A01 T00700070  RH  100%=      5-min Rain = 0
KSP2 161516Z 31007KT 07/07 A2994 RMK A01 T00710071  RH  100%=      5-min Rain = 0
KSP2 161517Z 32007KT 07/07 A2994 RMK A01 T00710071  RH  100%=      5-min Rain = 0
KSP2 161518Z 31007KT 07/07 A2994 RMK A01 T00710071  RH  100%=      5-min Rain = 0
KSP2 161519Z 32006KT 07/07 A2995 RMK A01 T00720072  RH  100%=      5-min Rain = 0
KSP2 161520Z 32006KT 07/07 A2995 RMK A01 T00720072  RH  100%=      5-min Rain = 0
KSP2 161521Z 33005KT 07/07 A2995 RMK A01 T00720072  RH  100%=      5-min Rain = 0
KSP2 161522Z 33007KT 07/07 A2995 RMK A01 T00730073  RH  100%=      5-min Rain = 0
KSP2 161523Z 33007KT 07/07 A2994 RMK A01 T00740074  RH  100%=      5-min Rain = 0
KSP2 161524Z 33007KT 08/08 A2994 RMK A01 T00750075  RH  100%=      5-min Rain = 0
KSP2 161525Z 34008KT 08/08 A2994 RMK A01 T00760076  RH  100%=      5-min Rain = 0
KSP2 161526Z 33007KT 08/08 A2994 RMK A01 T00750075  RH  100%=      5-min Rain = 0
KSP2 161527Z 32007KT 08/08 A2994 RMK A01 T00760076  RH  100%=      5-min Rain = 0
KSP2 161528Z 33007KT 08/08 A2994 RMK A01 T00770077  RH  100%=      5-min Rain = 0
KSP2 161529Z 33007KT 08/08 A2994 RMK A01 T00770077  RH  100%=      5-min Rain = 0
KSP2 161530Z 31006KT 08/08 A2994 RMK A01 T00780078  RH  100%=      5-min Rain = 0
KSP2 161531Z 31008KT 08/08 A2994 RMK A01 T00790079  RH  100%=      5-min Rain = 0
KSP2 161532Z 32007KT 08/08 A2995 RMK A01 T00780078  RH  100%=      5-min Rain = 0
KSP2 161533Z 32007KT 08/08 A2995 RMK A01 T00790079  RH  100%=      5-min Rain = 0
KSP2 161534Z 30005KT 08/08 A2994 RMK A01 T00790079  RH  100%=      5-min Rain = 0
KSP2 161535Z 30007KT 08/08 A2994 RMK A01 T00800080  RH  100%=      5-min Rain = 0
KSP2 161536Z 31006KT 08/08 A2994 RMK A01 T00820082  RH  100%=      5-min Rain = 0
KSP2 161537Z 30006KT 08/08 A2994 RMK A01 T00830083  RH  100%=      5-min Rain = 0
KSP2 161538Z 30008KT 08/08 A2994 RMK A01 T00840084  RH  100%=      5-min Rain = 0
KSP2 161539Z 32008KT 08/08 A2994 RMK A01 T00830083  RH  100%=      5-min Rain = 0
KSP2 161540Z 33013KT 09/09 A2995 RMK A01 T00850085  RH  100%=      5-min Rain = 0
KSP2 161541Z 33010KT 08/08 A2995 RMK A01 T00830084  RH  100%=      5-min Rain = 0
KSP2 161542Z 33007KT 08/08 A2994 RMK A01 T00840084  RH  100%=      5-min Rain = 0
KSP2 161543Z 33010KT 09/09 A2994 RMK A01 T00860086  RH  100%=      5-min Rain = 0
KSP2 161544Z 33011KT 09/09 A2995 RMK A01 T00860086  RH  100%=      5-min Rain = 0
KSP2 161545Z 33011KT 08/08 A2995 RMK A01 T00840084  RH  100%=      5-min Rain = 0
KSP2 161546Z 34009KT 08/08 A2995 RMK A01 T00840084  RH  100%=      5-min Rain = 0
KSP2 161547Z 32008KT 09/09 A2995 RMK A01 T00850085  RH  100%=      5-min Rain = 0
KSP2 161548Z 33008KT 09/09 A2995 RMK A01 T00850085  RH  100%=      5-min Rain = 0
KSP2 161549Z 35008KT 09/09 A2995 RMK A01 T00860085  RH  100%=      5-min Rain = 0
KSP2 161550Z 34008KT 09/09 A2995 RMK A01 T00880088  RH  100%=      5-min Rain = 0
KSP2 161551Z 34009KT 09/09 A2995 RMK A01 T00910091  RH  100%=      5-min Rain = 0
KSP2 161552Z 34010KT 09/09 A2995 RMK A01 T00910091  RH  100%=      5-min Rain = 0
KSP2 161553Z 34009KT 09/09 A2995 RMK A01 T00910091  RH  100%=      5-min Rain = 0
KSP2 161554Z 35008KT 09/09 A2995 RMK A01 T00910091  RH  100%=      5-min Rain = 0
KSP2 161555Z 35009KT 09/09 A2994 RMK A01 T00910091  RH  099%=      5-min Rain = 0
KSP2 161556Z 35011KT 09/09 A2994 RMK A01 T00930092  RH  099%=      5-min Rain = 0
KSP2 161557Z 34010KT 09/09 A2995 RMK A01 T00930092  RH  099%=      5-min Rain = 0
KSP2 161558Z 35014KT 09/09 A2995 RMK A01 T00930091  RH  099%=      5-min Rain = 0
KSP2 161559Z 35012KT 09/09 A2995 RMK A01 T00930091  RH  098%=      5-min Rain = 0
KSP2 161600Z 34012KT 09/09 A2995 RMK A01 T00930090  RH  098%=      5-min Rain = 0
KSP2 161601Z 34012KT 09/09 A2995 RMK A01 T00930089  RH  097%=      5-min Rain = 0
KSP2 161602Z 35012KT 09/09 A2995 RMK A01 T00930089  RH  097%=      5-min Rain = 0
KSP2 161603Z 35011KT 09/09 A2995 RMK A01 T00930088  RH  097%=      5-min Rain = 0
KSP2 161604Z 35009KT 09/09 A2995 RMK A01 T00930087  RH  097%=      5-min Rain = 0
KSP2 161605Z 34012KT 09/09 A2995 RMK A01 T00930088  RH  097%=      5-min Rain = 0
KSP2 161606Z 34012KT 09/09 A2995 RMK A01 T00930087  RH  096%=      5-min Rain = 0
KSP2 161607Z 34013KT 09/09 A2995 RMK A01 T00930087  RH  096%=      5-min Rain = 0
KSP2 161608Z 34012KT 09/09 A2995 RMK A01 T00920085  RH  095%=      5-min Rain = 0
KSP2 161609Z 34011KT 09/09 A2995 RMK A01 T00920085  RH  095%=      5-min Rain = 0
KSP2 161610Z 34012KT 09/09 A2995 RMK A01 T00930086  RH  096%=      5-min Rain = 0
KSP2 161611Z 34016KT 09/09 A2995 RMK A01 T00930086  RH  095%=      5-min Rain = 0
KSP2 161612Z 34014KT 09/08 A2995 RMK A01 T00930084  RH  094%=      5-min Rain = 0
KSP2 161613Z 34014KT 09/08 A2995 RMK A01 T00920084  RH  095%=      5-min Rain = 0
KSP2 161614Z 35015KT 09/08 A2995 RMK A01 T00920084  RH  095%=      5-min Rain = 0
KSP2 161615Z 35014KT 09/08 A2995 RMK A01 T00910083  RH  095%=      5-min Rain = 0
KSP2 161616Z 34011KT 09/08 A2995 RMK A01 T00910083  RH  095%=      5-min Rain = 0
KSP2 161617Z 35012G18KT 09/08 A2995 RMK A01 T00910084  RH  095%=      5-min Rain = 0
KSP2 161618Z 34015KT 09/08 A2995 RMK A01 T00920083  RH  095%=      5-min Rain = 0
KSP2 161619Z 35014KT 09/08 A2995 RMK A01 T00900081  RH  094%=      5-min Rain = 0
KSP2 161620Z 35013KT 09/08 A2995 RMK A01 T00900080  RH  093%=      5-min Rain = 0
KSP2 161621Z 34012KT 09/08 A2995 RMK A01 T00900080  RH  093%=      5-min Rain = 0
KSP2 161622Z 34011KT 09/08 A2995 RMK A01 T00900080  RH  094%=      5-min Rain = 0
KSP2 161623Z 35015KT 09/08 A2995 RMK A01 T00900080  RH  094%=      5-min Rain = 0
KSP2 161624Z 34015KT 09/08 A2995 RMK A01 T00890078  RH  093%=      5-min Rain = 0
KSP2 161625Z 35013KT 09/08 A2995 RMK A01 T00880078  RH  093%=      5-min Rain = 0
KSP2 161626Z 34015KT 09/08 A2996 RMK A01 T00880077  RH  093%=      5-min Rain = 0
KSP2 161627Z 34010KT 09/08 A2996 RMK A01 T00870077  RH  093%=      5-min Rain = 0
KSP2 161628Z 34008KT 09/08 A2996 RMK A01 T00880079  RH  094%=      5-min Rain = 0
KSP2 161629Z 34009KT 09/08 A2996 RMK A01 T00890082  RH  095%=      5-min Rain = 0
KSP2 161630Z 35010KT 09/08 A2996 RMK A01 T00900082  RH  095%=      5-min Rain = 0
KSP2 161631Z 36011KT 09/08 A2996 RMK A01 T00900081  RH  094%=      5-min Rain = 0
KSP2 161632Z 00013KT 09/08 A2996 RMK A01 T00890079  RH  094%=      5-min Rain = 0
KSP2 161633Z 00012KT 09/08 A2996 RMK A01 T00870078  RH  094%=      5-min Rain = 0
KSP2 161634Z 36014KT 09/08 A2996 RMK A01 T00860078  RH  094%=      5-min Rain = 0
KSP2 161635Z 00013KT 09/08 A2996 RMK A01 T00860077  RH  094%=      5-min Rain = 0
KSP2 161636Z 01013KT 09/08 A2995 RMK A01 T00850077  RH  094%=      5-min Rain = 0
KSP2 161637Z 36012KT 09/08 A2996 RMK A01 T00850078  RH  095%=      5-min Rain = 0
KSP2 161638Z 35011KT 09/08 A2996 RMK A01 T00860079  RH  095%=      5-min Rain = 0
KSP2 161639Z 35012KT 09/08 A2996 RMK A01 T00860078  RH  095%=      5-min Rain = 0
KSP2 161640Z 00012KT 09/08 A2996 RMK A01 T00850076  RH  094%=      5-min Rain = 0
KSP2 161641Z 36011KT 09/08 A2996 RMK A01 T00850078  RH  095%=      5-min Rain = 0
KSP2 161642Z 35013KT 09/08 A2996 RMK A01 T00860079  RH  095%=      5-min Rain = 0
KSP2 161643Z 34014KT 09/08 A2996 RMK A01 T00850077  RH  094%=      5-min Rain = 0
KSP2 161644Z 36011KT 09/08 A2996 RMK A01 T00850076  RH  094%=      5-min Rain = 0
KSP2 161645Z 35009KT 09/08 A2996 RMK A01 T00850076  RH  094%=      5-min Rain = 0
KSP2 161646Z 34014KT 09/08 A2996 RMK A01 T00860078  RH  095%=      5-min Rain = 0
KSP2 161647Z 36013KT 09/08 A2996 RMK A01 T00850076  RH  094%=      5-min Rain = 0
KSP2 161648Z 36011KT 08/07 A2996 RMK A01 T00840074  RH  094%=      5-min Rain = 0
KSP2 161649Z 34013KT 08/08 A2996 RMK A01 T00830075  RH  094%=      5-min Rain = 0
KSP2 161650Z 35013KT 08/08 A2996 RMK A01 T00840076  RH  095%=      5-min Rain = 0
KSP2 161651Z 35014KT 09/08 A2996 RMK A01 T00850077  RH  095%=      5-min Rain = 0
KSP2 161652Z 35014KT 09/08 A2996 RMK A01 T00850075  RH  094%=      5-min Rain = 0
KSP2 161653Z 34015KT 09/07 A2996 RMK A01 T00850074  RH  093%=      5-min Rain = 0
KSP2 161654Z 34013KT 09/07 A2996 RMK A01 T00850073  RH  093%=      5-min Rain = 0
KSP2 161655Z 34015KT 09/07 A2996 RMK A01 T00850073  RH  093%=      5-min Rain = 0
KSP2 161656Z 35016KT 09/07 A2996 RMK A01 T00850073  RH  092%=      5-min Rain = 0
KSP2 161657Z 35015KT 09/07 A2996 RMK A01 T00850072  RH  092%=      5-min Rain = 0
KSP2 161658Z 34015KT 09/07 A2996 RMK A01 T00850072  RH  092%=      5-min Rain = 0
KSP2 161659Z 34012KT 09/07 A2996 RMK A01 T00850072  RH  092%=      5-min Rain = 0
KSP2 161700Z 34015KT 09/07 A2996 RMK A01 T00850072  RH  092%=      5-min Rain = 0
KSP2 161701Z 34014KT 09/07 A2996 RMK A01 T00850072  RH  092%=      5-min Rain = 0
KSP2 161702Z 34013KT 09/07 A2996 RMK A01 T00850073  RH  092%=      5-min Rain = 0
KSP2 161703Z 34012KT 08/07 A2996 RMK A01 T00840073  RH  092%=      5-min Rain = 0
KSP2 161704Z 35011KT 08/07 A2996 RMK A01 T00840073  RH  093%=      5-min Rain = 0
KSP2 161705Z 35013KT 08/07 A2996 RMK A01 T00840074  RH  093%=      5-min Rain = 0
KSP2 161706Z 36013KT 08/07 A2996 RMK A01 T00840073  RH  093%=      5-min Rain = 0
KSP2 161707Z 35012KT 08/07 A2996 RMK A01 T00840072  RH  093%=      5-min Rain = 0
KSP2 161708Z 35014KT 08/07 A2996 RMK A01 T00830072  RH  093%=      5-min Rain = 0
KSP2 161709Z 35013KT 08/07 A2996 RMK A01 T00830071  RH  092%=      5-min Rain = 0
KSP2 161710Z 35015KT 08/07 A2996 RMK A01 T00820070  RH  092%=      5-min Rain = 0
KSP2 161711Z 00014KT 08/07 A2997 RMK A01 T00820070  RH  092%=      5-min Rain = 0
KSP2 161712Z 35013KT 08/07 A2997 RMK A01 T00820070  RH  093%=      5-min Rain = 0
KSP2 161713Z 35014KT 08/07 A2997 RMK A01 T00810070  RH  093%=      5-min Rain = 0
KSP2 161714Z 35012KT 08/07 A2997 RMK A01 T00810070  RH  093%=      5-min Rain = 0
KSP2 161715Z 36012KT 08/07 A2997 RMK A01 T00810071  RH  094%=      5-min Rain = 0
KSP2 161716Z 34011KT 08/07 A2997 RMK A01 T00810072  RH  094%=      5-min Rain = 0
KSP2 161717Z 35012KT 08/07 A2997 RMK A01 T00810072  RH  094%=      5-min Rain = 0
KSP2 161718Z 35012KT 08/07 A2997 RMK A01 T00820073  RH  094%=      5-min Rain = 0
KSP2 161719Z 00010KT 08/07 A2997 RMK A01 T00830074  RH  094%=      5-min Rain = 0
KSP2 161720Z 36013KT 08/08 A2997 RMK A01 T00840075  RH  094%=      5-min Rain = 0
KSP2 161721Z 36013KT 08/07 A2997 RMK A01 T00830073  RH  093%=      5-min Rain = 0
KSP2 161722Z 36012KT 08/07 A2997 RMK A01 T00820072  RH  093%=      5-min Rain = 0
KSP2 161723Z 36012KT 08/07 A2997 RMK A01 T00820072  RH  094%=      5-min Rain = 0
KSP2 161724Z 35013KT 08/07 A2997 RMK A01 T00820074  RH  094%=      5-min Rain = 0
KSP2 161725Z 36014KT 08/07 A2997 RMK A01 T00830074  RH  094%=      5-min Rain = 0
KSP2 161726Z 36014KT 08/07 A2997 RMK A01 T00830072  RH  093%=      5-min Rain = 0
KSP2 161727Z 35010KT 08/07 A2997 RMK A01 T00820073  RH  094%=      5-min Rain = 0
KSP2 161728Z 34011KT 08/08 A2997 RMK A01 T00840077  RH  095%=      5-min Rain = 0
KSP2 161729Z 34013KT 09/08 A2997 RMK A01 T00860077  RH  094%=      5-min Rain = 0
KSP2 161730Z 35014KT 09/08 A2997 RMK A01 T00850075  RH  093%=      5-min Rain = 0
KSP2 161731Z 35012KT 08/07 A2997 RMK A01 T00840073  RH  093%=      5-min Rain = 0
KSP2 161732Z 34011KT 08/07 A2997 RMK A01 T00840074  RH  093%=      5-min Rain = 0
KSP2 161733Z 35012KT 09/07 A2997 RMK A01 T00850074  RH  093%=      5-min Rain = 0
KSP2 161734Z 34011KT 09/07 A2997 RMK A01 T00850074  RH  093%=      5-min Rain = 0
KSP2 161735Z 34013KT 09/07 A2997 RMK A01 T00860074  RH  092%=      5-min Rain = 0
KSP2 161736Z 34012KT 09/07 A2997 RMK A01 T00860073  RH  092%=      5-min Rain = 0
KSP2 161737Z 34013G18KT 09/07 A2997 RMK A01 T00870074  RH  092%=      5-min Rain = 0
KSP2 161738Z 35016KT 09/07 A2997 RMK A01 T00870073  RH  091%=      5-min Rain = 0
KSP2 161739Z 36013KT 09/07 A2997 RMK A01 T00870072  RH  091%=      5-min Rain = 0
KSP2 161740Z 36017KT 09/07 A2997 RMK A01 T00860071  RH  090%=      5-min Rain = 0
KSP2 161741Z 36017KT 09/07 A2997 RMK A01 T00860069  RH  089%=      5-min Rain = 0
KSP2 161742Z 35016KT 09/07 A2997 RMK A01 T00860069  RH  090%=      5-min Rain = 0
KSP2 161743Z 35013KT 09/07 A2997 RMK A01 T00850068  RH  089%=      5-min Rain = 0
KSP2 161744Z 36016KT 09/07 A2997 RMK A01 T00850070  RH  090%=      5-min Rain = 0
KSP2 161745Z 00017KT 09/07 A2997 RMK A01 T00850070  RH  090%=      5-min Rain = 0
KSP2 161746Z 36019KT 09/07 A2997 RMK A01 T00850069  RH  090%=      5-min Rain = 0
KSP2 161747Z 36016KT 08/07 A2997 RMK A01 T00840067  RH  089%=      5-min Rain = 0
KSP2 161748Z 36019KT 08/07 A2997 RMK A01 T00840067  RH  089%=      5-min Rain = 0
KSP2 161749Z 36015KT 08/07 A2997 RMK A01 T00840066  RH  089%=      5-min Rain = 0
KSP2 161750Z 35015KT 08/07 A2997 RMK A01 T00840067  RH  089%=      5-min Rain = 0
KSP2 161751Z 36018KT 09/07 A2997 RMK A01 T00850068  RH  089%=      5-min Rain = 0
KSP2 161752Z 36018KT 09/07 A2997 RMK A01 T00850066  RH  088%=      5-min Rain = 0
KSP2 161753Z 35017KT 08/07 A2997 RMK A01 T00840065  RH  088%=      5-min Rain = 0
KSP2 161754Z 35017KT 08/07 A2997 RMK A01 T00840065  RH  088%=      5-min Rain = 0
KSP2 161755Z 35018KT 08/06 A2997 RMK A01 T00840063  RH  087%=      5-min Rain = 0
KSP2 161756Z 00016KT 09/07 A2997 RMK A01 T00850065  RH  087%=      5-min Rain = 0
KSP2 161757Z 00017KT 09/07 A2997 RMK A01 T00850065  RH  087%=      5-min Rain = 0
KSP2 161758Z 35018KT 09/07 A2997 RMK A01 T00850065  RH  087%=      5-min Rain = 0
KSP2 161759Z 35016KT 09/06 A2997 RMK A01 T00850064  RH  087%=      5-min Rain = 0
KSP2 161800Z 35016KT 09/07 A2997 RMK A01 T00850065  RH  087%=      5-min Rain = 0
KSP2 161801Z 34016KT 09/06 A2997 RMK A01 T00850064  RH  087%=      5-min Rain = 0
KSP2 161802Z 35017KT 09/06 A2997 RMK A01 T00850064  RH  087%=      5-min Rain = 0
KSP2 161803Z 36016KT 09/07 A2997 RMK A01 T00850065  RH  087%=      5-min Rain = 0
KSP2 161804Z 36017KT 08/06 A2997 RMK A01 T00840064  RH  087%=      5-min Rain = 0
KSP2 161805Z 36016KT 08/06 A2997 RMK A01 T00840064  RH  087%=      5-min Rain = 0
KSP2 161806Z 35015KT 08/06 A2997 RMK A01 T00840063  RH  087%=      5-min Rain = 0
KSP2 161807Z 36014KT 08/06 A2997 RMK A01 T00840063  RH  087%=      5-min Rain = 0
KSP2 161808Z 00014G20KT 08/07 A2997 RMK A01 T00840065  RH  088%=      5-min Rain = 0
KSP2 161809Z 35014KT 09/07 A2998 RMK A01 T00850065  RH  087%=      5-min Rain = 0
KSP2 161810Z 36012KT 09/07 A2998 RMK A01 T00860067  RH  088%=      5-min Rain = 0
KSP2 161811Z 34012KT 09/07 A2998 RMK A01 T00860067  RH  088%=      5-min Rain = 0
KSP2 161812Z 35012KT 09/07 A2998 RMK A01 T00860068  RH  088%=      5-min Rain = 0
KSP2 161813Z 35015KT 09/07 A2998 RMK A01 T00860066  RH  087%=      5-min Rain = 0
KSP2 161814Z 35014KT 09/07 A2998 RMK A01 T00850065  RH  087%=      5-min Rain = 0
KSP2 161815Z 34016KT 09/07 A2998 RMK A01 T00850066  RH  088%=      5-min Rain = 0
KSP2 161816Z 35015KT 09/06 A2998 RMK A01 T00850063  RH  086%=      5-min Rain = 0
KSP2 161817Z 35017KT 08/06 A2998 RMK A01 T00840062  RH  086%=      5-min Rain = 0
KSP2 161818Z 35017KT 08/06 A2998 RMK A01 T00840061  RH  085%=      5-min Rain = 0
KSP2 161819Z 36014KT 09/06 A2998 RMK A01 T00850061  RH  085%=      5-min Rain = 0
KSP2 161820Z 35011KT 09/07 A2998 RMK A01 T00870066  RH  087%=      5-min Rain = 0
KSP2 161821Z 36011KT 09/07 A2998 RMK A01 T00890067  RH  086%=      5-min Rain = 0
KSP2 161822Z 35015KT 09/07 A2997 RMK A01 T00900067  RH  085%=      5-min Rain = 0
KSP2 161823Z 35013KT 09/07 A2998 RMK A01 T00910065  RH  084%=      5-min Rain = 0
KSP2 161824Z 35016KT 09/06 A2997 RMK A01 T00900064  RH  083%=      5-min Rain = 0
KSP2 161825Z 35015KT 09/06 A2998 RMK A01 T00900063  RH  083%=      5-min Rain = 0
KSP2 161826Z 35015KT 09/06 A2998 RMK A01 T00900064  RH  084%=      5-min Rain = 0
KSP2 161827Z 35018KT 09/06 A2998 RMK A01 T00910062  RH  082%=      5-min Rain = 0
KSP2 161828Z 35017KT 09/06 A2998 RMK A01 T00920061  RH  081%=      5-min Rain = 0
KSP2 161829Z 35015KT 09/06 A2997 RMK A01 T00920061  RH  081%=      5-min Rain = 0
KSP2 161830Z 36017KT 09/06 A2997 RMK A01 T00920060  RH  081%=      5-min Rain = 0
KSP2 161831Z 36015KT 09/06 A2997 RMK A01 T00920060  RH  081%=      5-min Rain = 0
KSP2 161832Z 36014KT 09/06 A2997 RMK A01 T00920063  RH  082%=      5-min Rain = 0
KSP2 161833Z 00015KT 09/07 A2997 RMK A01 T00930065  RH  083%=      5-min Rain = 0
KSP2 161834Z 36016KT 10/06 A2997 RMK A01 T00950064  RH  081%=      5-min Rain = 0
KSP2 161835Z 35015KT 09/06 A2997 RMK A01 T00940064  RH  082%=      5-min Rain = 0
KSP2 161836Z 00016KT 09/06 A2997 RMK A01 T00940064  RH  081%=      5-min Rain = 0
KSP2 161837Z 36016G22KT 09/06 A2998 RMK A01 T00930062  RH  081%=      5-min Rain = 0
KSP2 161838Z 35016G21KT 09/06 A2998 RMK A01 T00920062  RH  082%=      5-min Rain = 0
KSP2 161839Z 35016KT 09/06 A2998 RMK A01 T00910062  RH  082%=      5-min Rain = 0
KSP2 161840Z 35016KT 09/06 A2998 RMK A01 T00920064  RH  083%=      5-min Rain = 0
KSP2 161841Z 35017KT 09/06 A2998 RMK A01 T00930062  RH  080%=      5-min Rain = 0
KSP2 161842Z 35013KT 10/07 A2998 RMK A01 T00950065  RH  082%=      5-min Rain = 0
KSP2 161843Z 34012KT 10/08 A2998 RMK A01 T01010075  RH  084%=      5-min Rain = 0
KSP2 161844Z 35014KT 11/08 A2998 RMK A01 T01070079  RH  083%=      5-min Rain = 0
KSP2 161845Z 34015KT 11/07 A2998 RMK A01 T01080073  RH  079%=      5-min Rain = 0
KSP2 161846Z 35013KT 11/07 A2998 RMK A01 T01070067  RH  076%=      5-min Rain = 0
KSP2 161847Z 36015KT 11/07 A2998 RMK A01 T01050067  RH  077%=      5-min Rain = 0
KSP2 161848Z 35018KT 10/07 A2998 RMK A01 T01030065  RH  077%=      5-min Rain = 0
KSP2 161849Z 35017KT 10/06 A2998 RMK A01 T01010063  RH  077%=      5-min Rain = 0
KSP2 161850Z 36017KT 10/06 A2998 RMK A01 T01000063  RH  078%=      5-min Rain = 0
KSP2 161851Z 35019KT 10/06 A2998 RMK A01 T00990061  RH  077%=      5-min Rain = 0
KSP2 161852Z 35013KT 10/06 A2998 RMK A01 T00970060  RH  078%=      5-min Rain = 0
KSP2 161853Z 00014KT 10/06 A2998 RMK A01 T00970064  RH  080%=      5-min Rain = 0
KSP2 161854Z 00017KT 10/07 A2998 RMK A01 T00980065  RH  080%=      5-min Rain = 0
KSP2 161855Z 00014KT 10/06 A2998 RMK A01 T00990062  RH  078%=      5-min Rain = 0
KSP2 161856Z 36017KT 10/06 A2998 RMK A01 T00980062  RH  078%=      5-min Rain = 0
KSP2 161857Z 00019KT 10/06 A2998 RMK A01 T00980058  RH  077%=      5-min Rain = 0
KSP2 161858Z 36016KT 10/06 A2998 RMK A01 T00960057  RH  076%=      5-min Rain = 0
KSP2 161859Z 00017KT 10/06 A2998 RMK A01 T00960059  RH  078%=      5-min Rain = 0
KSP2 161900Z 35016G21KT 10/06 A2998 RMK A01 T00960058  RH  077%=      5-min Rain = 0
KSP2 161901Z 36017KT 10/06 A2998 RMK A01 T00960057  RH  077%=      5-min Rain = 0
KSP2 161902Z 36015KT 10/06 A2998 RMK A01 T00970057  RH  076%=      5-min Rain = 0
KSP2 161903Z 36017KT 10/06 A2998 RMK A01 T00970059  RH  077%=      5-min Rain = 0
KSP2 161904Z 00016KT 10/06 A2998 RMK A01 T00980059  RH  077%=      5-min Rain = 0
KSP2 161905Z 36017KT 10/06 A2998 RMK A01 T00980059  RH  077%=      5-min Rain = 0
KSP2 161906Z 36019KT 10/06 A2998 RMK A01 T00980058  RH  076%=      5-min Rain = 0
KSP2 161907Z 35018KT 10/05 A2998 RMK A01 T00970054  RH  074%=      5-min Rain = 0
KSP2 161908Z 36017KT 10/05 A2998 RMK A01 T00960053  RH  075%=      5-min Rain = 0
KSP2 161909Z 35016KT 10/06 A2998 RMK A01 T00960056  RH  076%=      5-min Rain = 0
KSP2 161910Z 36019KT 10/06 A2998 RMK A01 T00970056  RH  076%=      5-min Rain = 0
KSP2 161911Z 36019KT 10/06 A2998 RMK A01 T00970055  RH  075%=      5-min Rain = 0
KSP2 161912Z 35018KT 10/06 A2998 RMK A01 T00970056  RH  076%=      5-min Rain = 0
KSP2 161913Z 36016KT 10/06 A2999 RMK A01 T00960058  RH  077%=      5-min Rain = 0
KSP2 161914Z 00017KT 10/06 A2999 RMK A01 T00970058  RH  077%=      5-min Rain = 0
KSP2 161915Z 36016KT 10/06 A2999 RMK A01 T00970059  RH  077%=      5-min Rain = 0
KSP2 161916Z 36017KT 10/06 A2999 RMK A01 T00980058  RH  076%=      5-min Rain = 0
KSP2 161917Z 36017KT 10/06 A2999 RMK A01 T00990057  RH  075%=      5-min Rain = 0
KSP2 161918Z 35016KT 10/05 A2999 RMK A01 T00980054  RH  074%=      5-min Rain = 0
KSP2 161919Z 35012KT 10/06 A2999 RMK A01 T00990056  RH  075%=      5-min Rain = 0
KSP2 161920Z 34015G20KT 10/06 A2999 RMK A01 T01000060  RH  076%=      5-min Rain = 0
KSP2 161921Z 34016G21KT 10/06 A2999 RMK A01 T01010061  RH  076%=      5-min Rain = 0
KSP2 161922Z 34018KT 10/06 A2999 RMK A01 T01010057  RH  074%=      5-min Rain = 0
KSP2 161923Z 33017KT 10/05 A2999 RMK A01 T01000054  RH  073%=      5-min Rain = 0
KSP2 161924Z 33014KT 10/06 A2999 RMK A01 T00990055  RH  074%=      5-min Rain = 0
KSP2 161925Z 33016KT 10/06 A2999 RMK A01 T00990055  RH  074%=      5-min Rain = 0
KSP2 161926Z 35015KT 10/06 A2998 RMK A01 T00990057  RH  075%=      5-min Rain = 0
KSP2 161927Z 35016KT 10/06 A2998 RMK A01 T00990060  RH  077%=      5-min Rain = 0
KSP2 161928Z 00015KT 10/06 A2998 RMK A01 T00990061  RH  077%=      5-min Rain = 0
KSP2 161929Z 01017KT 10/06 A2998 RMK A01 T00980059  RH  076%=      5-min Rain = 0
KSP2 161930Z 01015KT 10/06 A2998 RMK A01 T00980060  RH  077%=      5-min Rain = 0
KSP2 161931Z 00018KT 10/06 A2998 RMK A01 T00980056  RH  075%=      5-min Rain = 0
KSP2 161932Z 01015KT 10/06 A2998 RMK A01 T00980056  RH  075%=      5-min Rain = 0
KSP2 161933Z 01017KT 10/06 A2998 RMK A01 T00990056  RH  074%=      5-min Rain = 0
KSP2 161934Z 00016KT 10/06 A2998 RMK A01 T00990056  RH  075%=      5-min Rain = 0
KSP2 161935Z 00016KT 10/06 A2998 RMK A01 T00980058  RH  076%=      5-min Rain = 0
KSP2 161936Z 36017G22KT 10/06 A2998 RMK A01 T00990055  RH  074%=      5-min Rain = 0
KSP2 161937Z 36016KT 10/05 A2998 RMK A01 T00990054  RH  073%=      5-min Rain = 0
KSP2 161938Z 35015KT 10/06 A2999 RMK A01 T00990056  RH  074%=      5-min Rain = 0
KSP2 161939Z 35015KT 10/06 A2999 RMK A01 T01020057  RH  074%=      5-min Rain = 0
KSP2 161940Z 35014KT 10/06 A2999 RMK A01 T01020057  RH  074%=      5-min Rain = 0
KSP2 161941Z 35015KT 10/06 A2999 RMK A01 T01030059  RH  074%=      5-min Rain = 0
KSP2 161942Z 36017KT 10/06 A2999 RMK A01 T01030058  RH  074%=      5-min Rain = 0
KSP2 161943Z 00018KT 10/06 A2999 RMK A01 T01010056  RH  073%=      5-min Rain = 0
KSP2 161944Z 36018KT 10/05 A2999 RMK A01 T01000054  RH  073%=      5-min Rain = 0
KSP2 161945Z 00015KT 10/05 A2999 RMK A01 T00990052  RH  073%=      5-min Rain = 0
KSP2 161946Z 00014KT 10/06 A2999 RMK A01 T01000055  RH  073%=      5-min Rain = 0
KSP2 161947Z 36011KT 10/06 A2999 RMK A01 T01040057  RH  073%=      5-min Rain = 0
KSP2 161948Z 36011KT 11/07 A2998 RMK A01 T01100068  RH  075%=      5-min Rain = 0
KSP2 161949Z 36012KT 11/06 A2998 RMK A01 T01140061  RH  070%=      5-min Rain = 0
KSP2 161950Z 35012KT 12/06 A2998 RMK A01 T01150058  RH  068%=      5-min Rain = 0
KSP2 161951Z 35016KT 11/06 A2998 RMK A01 T01140061  RH  070%=      5-min Rain = 0
KSP2 161952Z 35016KT 11/06 A2998 RMK A01 T01140059  RH  069%=      5-min Rain = 0
KSP2 161953Z 35015KT 11/06 A2998 RMK A01 T01120057  RH  069%=      5-min Rain = 0
KSP2 161954Z 35012KT 11/06 A2998 RMK A01 T01110057  RH  069%=      5-min Rain = 0
KSP2 161955Z 35015G20KT 11/06 A2998 RMK A01 T01100057  RH  070%=      5-min Rain = 0
KSP2 161956Z 35018KT 11/06 A2998 RMK A01 T01100058  RH  071%=      5-min Rain = 0
KSP2 161957Z 00021G27KT 11/06 A2998 RMK A01 T01090059  RH  071%=      5-min Rain = 0
KSP2 161958Z 00024KT 11/05 A2998 RMK A01 T01060054  RH  070%=      5-min Rain = 0
KSP2 161959Z 00021KT 11/06 A2998 RMK A01 T01050056  RH  072%=      5-min Rain = 0
KSP2 162000Z 01019KT 11/06 A2998 RMK A01 T01070061  RH  073%=      5-min Rain = 0
KSP2 162001Z 00024KT 11/06 A2998 RMK A01 T01100059  RH  071%=      5-min Rain = 0
KSP2 162002Z 01018KT 11/06 A2998 RMK A01 T01100060  RH  071%=      5-min Rain = 0
KSP2 162003Z 01020KT 11/06 A2998 RMK A01 T01120061  RH  071%=      5-min Rain = 0
KSP2 162004Z 01019G24KT 11/06 A2998 RMK A01 T01120058  RH  070%=      5-min Rain = 0
KSP2 162005Z 01019KT 11/06 A2998 RMK A01 T01110061  RH  072%=      5-min Rain = 0
KSP2 162006Z 00019KT 11/06 A2998 RMK A01 T01110058  RH  070%=      5-min Rain = 0
KSP2 162007Z 01020KT 11/06 A2998 RMK A01 T01110058  RH  070%=      5-min Rain = 0
KSP2 162008Z 01017KT 11/06 A2998 RMK A01 T01130058  RH  069%=      5-min Rain = 0
KSP2 162009Z 01016KT 12/06 A2998 RMK A01 T01150060  RH  069%=      5-min Rain = 0
KSP2 162010Z 00015KT 12/06 A2998 RMK A01 T01160059  RH  068%=      5-min Rain = 0
KSP2 162011Z 00016G21KT 12/06 A2998 RMK A01 T01170057  RH  067%=      5-min Rain = 0
KSP2 162012Z 00018KT 12/05 A2998 RMK A01 T01150053  RH  066%=      5-min Rain = 0
KSP2 162013Z 00015KT 11/05 A2998 RMK A01 T01120051  RH  066%=      5-min Rain = 0
KSP2 162014Z 00016G21KT 11/06 A2998 RMK A01 T01120055  RH  068%=      5-min Rain = 0
KSP2 162015Z 00017KT 11/05 A2998 RMK A01 T01120052  RH  067%=      5-min Rain = 0
KSP2 162016Z 36015KT 11/05 A2998 RMK A01 T01090050  RH  067%=      5-min Rain = 0
KSP2 162017Z 36015KT 11/05 A2998 RMK A01 T01090052  RH  068%=      5-min Rain = 0
KSP2 162018Z 36017KT 11/06 A2998 RMK A01 T01130057  RH  068%=      5-min Rain = 0
KSP2 162019Z 34019KT 12/06 A2998 RMK A01 T01160057  RH  067%=      5-min Rain = 0
KSP2 162020Z 35020KT 12/05 A2998 RMK A01 T01160052  RH  065%=      5-min Rain = 0
KSP2 162021Z 36019KT 12/05 A2998 RMK A01 T01150050  RH  065%=      5-min Rain = 0
KSP2 162022Z 36017KT 11/05 A2998 RMK A01 T01140050  RH  064%=      5-min Rain = 0
KSP2 162023Z 36019G24KT 11/05 A2998 RMK A01 T01140053  RH  066%=      5-min Rain = 0
KSP2 162024Z 36020KT 11/05 A2998 RMK A01 T01140052  RH  065%=      5-min Rain = 0
KSP2 162025Z 36018KT 11/05 A2998 RMK A01 T01120051  RH  066%=      5-min Rain = 0
KSP2 162026Z 01015KT 11/05 A2998 RMK A01 T01110054  RH  068%=      5-min Rain = 0
KSP2 162027Z 01017KT 11/05 A2998 RMK A01 T01130052  RH  066%=      5-min Rain = 0
KSP2 162028Z 00020KT 11/05 A2998 RMK A01 T01120050  RH  065%=      5-min Rain = 0
KSP2 162029Z 36018KT 11/05 A2998 RMK A01 T01120050  RH  066%=      5-min Rain = 0
KSP2 162030Z 35019KT 11/05 A2998 RMK A01 T01120051  RH  066%=      5-min Rain = 0
KSP2 162031Z 35016KT 11/05 A2998 RMK A01 T01120050  RH  065%=      5-min Rain = 0
KSP2 162032Z 35016G21KT 11/05 A2998 RMK A01 T01110051  RH  067%=      5-min Rain = 0
KSP2 162033Z 36016KT 11/05 A2998 RMK A01 T01110052  RH  067%=      5-min Rain = 0
KSP2 162034Z 36017KT 11/05 A2998 RMK A01 T01120052  RH  067%=      5-min Rain = 0
KSP2 162035Z 00016KT 11/05 A2998 RMK A01 T01120051  RH  066%=      5-min Rain = 0
KSP2 162036Z 00019KT 11/05 A2998 RMK A01 T01120052  RH  067%=      5-min Rain = 0
KSP2 162037Z 36019KT 11/05 A2998 RMK A01 T01110048  RH  065%=      5-min Rain = 0
KSP2 162038Z 00015KT 11/05 A2998 RMK A01 T01100052  RH  067%=      5-min Rain = 0
KSP2 162039Z 35017KT 11/06 A2998 RMK A01 T01130055  RH  067%=      5-min Rain = 0
KSP2 162040Z 00017G22KT 12/06 A2998 RMK A01 T01160057  RH  067%=      5-min Rain = 0
KSP2 162041Z 36021G26KT 12/06 A2998 RMK A01 T01160056  RH  067%=      5-min Rain = 0
KSP2 162042Z 00023KT 11/05 A2998 RMK A01 T01120050  RH  065%=      5-min Rain = 0
KSP2 162043Z 36021KT 11/05 A2998 RMK A01 T01080048  RH  066%=      5-min Rain = 0
KSP2 162044Z 36017KT 11/05 A2998 RMK A01 T01070050  RH  068%=      5-min Rain = 0
KSP2 162045Z 00017KT 11/05 A2998 RMK A01 T01080051  RH  068%=      5-min Rain = 0
KSP2 162046Z 01022KT 11/05 A2998 RMK A01 T01090048  RH  066%=      5-min Rain = 0
KSP2 162047Z 01020KT 11/05 A2998 RMK A01 T01080046  RH  065%=      5-min Rain = 0
KSP2 162048Z 35022KT 11/05 A2998 RMK A01 T01090048  RH  066%=      5-min Rain = 0
KSP2 162049Z 36020G25KT 11/05 A2998 RMK A01 T01100046  RH  064%=      5-min Rain = 0
KSP2 162050Z 00022KT 11/05 A2998 RMK A01 T01100046  RH  065%=      5-min Rain = 0
KSP2 162051Z 00019KT 11/04 A2998 RMK A01 T01080044  RH  064%=      5-min Rain = 0
KSP2 162052Z 01017KT 11/04 A2998 RMK A01 T01070043  RH  065%=      5-min Rain = 0
KSP2 162053Z 01014KT 11/05 A2998 RMK A01 T01070045  RH  065%=      5-min Rain = 0
KSP2 162054Z 35016KT 11/05 A2998 RMK A01 T01090050  RH  067%=      5-min Rain = 0
KSP2 162055Z 00015G21KT 11/05 A2998 RMK A01 T01120052  RH  066%=      5-min Rain = 0
KSP2 162056Z 00017KT 11/04 A2998 RMK A01 T01140044  RH  062%=      5-min Rain = 0
KSP2 162057Z 35015KT 11/05 A2998 RMK A01 T01120046  RH  064%=      5-min Rain = 0
KSP2 162058Z 35018G25KT 11/05 A2998 RMK A01 T01130048  RH  064%=      5-min Rain = 0
KSP2 162059Z 36020KT 11/04 A2999 RMK A01 T01130043  RH  062%=      5-min Rain = 0
KSP2 162100Z 36017KT 11/04 A2998 RMK A01 T01100042  RH  063%=      5-min Rain = 0
KSP2 162101Z 35019KT 11/04 A2998 RMK A01 T01090044  RH  064%=      5-min Rain = 0
KSP2 162102Z 00020KT 11/05 A2998 RMK A01 T01070047  RH  066%=      5-min Rain = 0
KSP2 162103Z 01021KT 11/05 A2998 RMK A01 T01060046  RH  066%=      5-min Rain = 0
KSP2 162104Z 01019G24KT 11/04 A2998 RMK A01 T01050044  RH  066%=      5-min Rain = 0
KSP2 162105Z 00020KT 11/04 A2999 RMK A01 T01050044  RH  066%=      5-min Rain = 0
KSP2 162106Z 00021KT 11/04 A2999 RMK A01 T01060042  RH  065%=      5-min Rain = 0
KSP2 162107Z 00021KT 11/04 A2998 RMK A01 T01060040  RH  063%=      5-min Rain = 0
KSP2 162108Z 36019KT 11/04 A2999 RMK A01 T01080043  RH  064%=      5-min Rain = 0
KSP2 162109Z 36017KT 11/05 A2999 RMK A01 T01110045  RH  064%=      5-min Rain = 0
KSP2 162110Z 36018KT 11/05 A2999 RMK A01 T01140045  RH  063%=      5-min Rain = 0
KSP2 162111Z 35015KT 11/04 A2999 RMK A01 T01140043  RH  062%=      5-min Rain = 0
KSP2 162112Z 35018KT 11/04 A2999 RMK A01 T01140042  RH  061%=      5-min Rain = 0
KSP2 162113Z 35018KT 11/04 A2999 RMK A01 T01140041  RH  061%=      5-min Rain = 0
KSP2 162114Z 35017KT 11/04 A2999 RMK A01 T01140040  RH  060%=      5-min Rain = 0
KSP2 162115Z 35014KT 11/04 A2999 RMK A01 T01120041  RH  062%=      5-min Rain = 0
KSP2 162116Z 36018G23KT 11/04 A2999 RMK A01 T01120043  RH  063%=      5-min Rain = 0
KSP2 162117Z 35018KT 11/04 A2999 RMK A01 T01120044  RH  063%=      5-min Rain = 0
KSP2 162118Z 35018G25KT 11/04 A2999 RMK A01 T01130043  RH  062%=      5-min Rain = 0
KSP2 162119Z 35017G24KT 11/04 A2999 RMK A01 T01130041  RH  061%=      5-min Rain = 0
KSP2 162120Z 35019KT 11/04 A2999 RMK A01 T01120040  RH  061%=      5-min Rain = 0
KSP2 162121Z 36019KT 11/04 A2999 RMK A01 T01100036  RH  060%=      5-min Rain = 0
KSP2 162122Z 36017KT 11/03 A2999 RMK A01 T01070034  RH  061%=      5-min Rain = 0
KSP2 162123Z 35018KT 11/04 A2999 RMK A01 T01070036  RH  061%=      5-min Rain = 0
KSP2 162124Z 35015KT 11/04 A2999 RMK A01 T01110041  RH  062%=      5-min Rain = 0
KSP2 162125Z 35015KT 12/04 A2999 RMK A01 T01160044  RH  061%=      5-min Rain = 0
KSP2 162126Z 35018KT 12/04 A2999 RMK A01 T01180044  RH  060%=      5-min Rain = 0
KSP2 162127Z 36019KT 12/04 A2999 RMK A01 T01170043  RH  061%=      5-min Rain = 0
KSP2 162128Z 36020KT 11/04 A2999 RMK A01 T01130040  RH  061%=      5-min Rain = 0
KSP2 162129Z 00018G23KT 11/04 A2999 RMK A01 T01090040  RH  062%=      5-min Rain = 0
KSP2 162130Z 36023KT 11/04 A2999 RMK A01 T01080039  RH  062%=      5-min Rain = 0
KSP2 162131Z 00021KT 11/04 A2999 RMK A01 T01070036  RH  062%=      5-min Rain = 0
KSP2 162132Z 35019G25KT 11/03 A2999 RMK A01 T01070034  RH  061%=      5-min Rain = 0
KSP2 162133Z 35018KT 11/04 A2999 RMK A01 T01080036  RH  061%=      5-min Rain = 0
KSP2 162134Z 36019KT 11/04 A2999 RMK A01 T01110037  RH  060%=      5-min Rain = 0
KSP2 162135Z 35019KT 11/03 A2999 RMK A01 T01140033  RH  058%=      5-min Rain = 0
KSP2 162136Z 36019KT 12/04 A2999 RMK A01 T01150035  RH  058%=      5-min Rain = 0
KSP2 162137Z 35019KT 12/04 A2999 RMK A01 T01170037  RH  058%=      5-min Rain = 0
KSP2 162138Z 34014KT 12/04 A2999 RMK A01 T01190042  RH  059%=      5-min Rain = 0
KSP2 162139Z 35015G21KT 12/05 A2998 RMK A01 T01230047  RH  060%=      5-min Rain = 0
KSP2 162140Z 35021G28KT 13/05 A2998 RMK A01 T01260048  RH  059%=      5-min Rain = 0
KSP2 162141Z 00023KT 13/04 A2998 RMK A01 T01250037  RH  055%=      5-min Rain = 0
KSP2 162142Z 00022KT 12/04 A2998 RMK A01 T01210036  RH  056%=      5-min Rain = 0
KSP2 162143Z 00019KT 12/04 A2999 RMK A01 T01180038  RH  058%=      5-min Rain = 0
KSP2 162144Z 36019KT 12/03 A2998 RMK A01 T01180034  RH  057%=      5-min Rain = 0
KSP2 162145Z 00017G22KT 12/04 A2999 RMK A01 T01160037  RH  058%=      5-min Rain = 0
KSP2 162146Z 00018KT 12/03 A2999 RMK A01 T01170034  RH  057%=      5-min Rain = 0
KSP2 162147Z 00017G22KT 12/04 A2999 RMK A01 T01160037  RH  058%=      5-min Rain = 0
KSP2 162148Z 35018G23KT 12/04 A2999 RMK A01 T01150035  RH  058%=      5-min Rain = 0
KSP2 162149Z 36019KT 11/03 A2999 RMK A01 T01130033  RH  058%=      5-min Rain = 0
KSP2 162150Z 00017G22KT 11/04 A2999 RMK A01 T01130036  RH  059%=      5-min Rain = 0
KSP2 162151Z 01022G27KT 12/04 A2998 RMK A01 T01160037  RH  058%=      5-min Rain = 0
KSP2 162152Z 01019G24KT 11/03 A2999 RMK A01 T01130033  RH  058%=      5-min Rain = 0
KSP2 162153Z 00017KT 11/03 A2999 RMK A01 T01100033  RH  059%=      5-min Rain = 0
KSP2 162154Z 01013KT 11/04 A2999 RMK A01 T01100038  RH  061%=      5-min Rain = 0
KSP2 162155Z 01018KT 11/04 A2999 RMK A01 T01120038  RH  060%=      5-min Rain = 0
KSP2 162156Z 36018KT 11/04 A2999 RMK A01 T01130036  RH  059%=      5-min Rain = 0
KSP2 162157Z 35018KT 11/03 A2999 RMK A01 T01130033  RH  058%=      5-min Rain = 0
KSP2 162158Z 36018KT 11/03 A2999 RMK A01 T01120034  RH  058%=      5-min Rain = 0
KSP2 162159Z 35017KT 11/03 A2999 RMK A01 T01120033  RH  058%=      5-min Rain = 0
KSP2 162200Z 36016KT 11/03 A2999 RMK A01 T01100030  RH  058%=      5-min Rain = 0
KSP2 162201Z 35015KT 11/03 A2999 RMK A01 T01090033  RH  059%=      5-min Rain = 0
KSP2 162202Z 35015KT 11/03 A2999 RMK A01 T01080034  RH  060%=      5-min Rain = 0
KSP2 162203Z 36017G23KT 11/04 A2999 RMK A01 T01100038  RH  061%=      5-min Rain = 0
KSP2 162204Z 01018KT 11/04 A2999 RMK A01 T01110038  RH  061%=      5-min Rain = 0
KSP2 162205Z 36017KT 11/04 A2999 RMK A01 T01110039  RH  061%=      5-min Rain = 0
KSP2 162206Z 36017KT 11/04 A2999 RMK A01 T01120038  RH  060%=      5-min Rain = 0
KSP2 162207Z 01019KT 11/04 A2999 RMK A01 T01130036  RH  059%=      5-min Rain = 0
KSP2 162208Z 01018KT 11/03 A2999 RMK A01 T01100033  RH  059%=      5-min Rain = 0
KSP2 162209Z 00014KT 11/03 A2999 RMK A01 T01080034  RH  061%=      5-min Rain = 0
KSP2 162210Z 01017G25KT 11/04 A2999 RMK A01 T01080039  RH  062%=      5-min Rain = 0
KSP2 162211Z 01022KT 11/04 A2999 RMK A01 T01090035  RH  060%=      5-min Rain = 0
KSP2 162212Z 01022KT 11/03 A2999 RMK A01 T01070033  RH  060%=      5-min Rain = 0
KSP2 162213Z 01021KT 11/03 A2999 RMK A01 T01050031  RH  060%=      5-min Rain = 0
KSP2 162214Z 01023KT 10/03 A2999 RMK A01 T01040031  RH  060%=      5-min Rain = 0
KSP2 162215Z 01021KT 10/03 A2999 RMK A01 T01030032  RH  061%=      5-min Rain = 0
KSP2 162216Z 00019G24KT 10/03 A2999 RMK A01 T01030032  RH  061%=      5-min Rain = 0
KSP2 162217Z 01018KT 10/03 A2999 RMK A01 T01020032  RH  062%=      5-min Rain = 0
KSP2 162218Z 01018KT 10/03 A2999 RMK A01 T01020033  RH  062%=      5-min Rain = 0
KSP2 162219Z 00020KT 10/03 A2999 RMK A01 T01040034  RH  062%=      5-min Rain = 0
KSP2 162220Z 36014KT 11/04 A2999 RMK A01 T01080038  RH  062%=      5-min Rain = 0
KSP2 162221Z 35019G24KT 12/04 A30 RMK A01 T01150041  RH  061%=      5-min Rain = 0
KSP2 162222Z 00021KT 11/04 A30 RMK A01 T01140035  RH  058%=      5-min Rain = 0
KSP2 162223Z 36018G24KT 11/03 A30 RMK A01 T01090033  RH  059%=      5-min Rain = 0
KSP2 162224Z 36022KT 11/03 A30 RMK A01 T01070032  RH  060%=      5-min Rain = 0
KSP2 162225Z 36023G28KT 10/03 A30 RMK A01 T01040031  RH  061%=      5-min Rain = 0
KSP2 162226Z 36022KT 10/03 A30 RMK A01 T01020031  RH  062%=      5-min Rain = 0
KSP2 162227Z 36020KT 10/03 A30 RMK A01 T01020033  RH  062%=      5-min Rain = 0
KSP2 162228Z 36020KT 10/03 A30 RMK A01 T01020031  RH  062%=      5-min Rain = 0
KSP2 162229Z 01021KT 10/03 A30 RMK A01 T01010029  RH  061%=      5-min Rain = 0
KSP2 162230Z 00019KT 10/03 A30 RMK A01 T01010029  RH  061%=      5-min Rain = 0
KSP2 162231Z 01018KT 10/03 A3001 RMK A01 T01030031  RH  061%=      5-min Rain = 0
KSP2 162232Z 36019KT 10/03 A3001 RMK A01 T01020029  RH  060%=      5-min Rain = 0
KSP2 162233Z 36016G21KT 10/03 A3001 RMK A01 T01000030  RH  062%=      5-min Rain = 0
KSP2 162234Z 35017G23KT 10/04 A3001 RMK A01 T01010035  RH  064%=      5-min Rain = 0
KSP2 162235Z 35016KT 10/03 A3001 RMK A01 T01010030  RH  061%=      5-min Rain = 0
KSP2 162236Z 35019KT 10/03 A3001 RMK A01 T01000031  RH  062%=      5-min Rain = 0
KSP2 162237Z 36020KT 10/03 A3001 RMK A01 T01000031  RH  062%=      5-min Rain = 0
KSP2 162238Z 35016KT 10/03 A3001 RMK A01 T01000030  RH  062%=      5-min Rain = 0
KSP2 162239Z 35013KT 10/04 A3001 RMK A01 T01020035  RH  063%=      5-min Rain = 0
KSP2 162240Z 36019G26KT 11/04 A3001 RMK A01 T01070037  RH  062%=      5-min Rain = 0
KSP2 162241Z 36022KT 11/03 A3001 RMK A01 T01080030  RH  059%=      5-min Rain = 0
KSP2 162242Z 35020KT 11/03 A3001 RMK A01 T01060028  RH  058%=      5-min Rain = 0
KSP2 162243Z 36019KT 10/03 A3001 RMK A01 T01030028  RH  060%=      5-min Rain = 0
KSP2 162244Z 36018KT 10/03 A3001 RMK A01 T01010028  RH  060%=      5-min Rain = 0
KSP2 162245Z 00018KT 10/03 A3001 RMK A01 T00990028  RH  061%=      5-min Rain = 0
KSP2 162246Z 36017KT 10/03 A3002 RMK A01 T00990031  RH  063%=      5-min Rain = 0
KSP2 162247Z 36018KT 10/03 A3002 RMK A01 T01010030  RH  062%=      5-min Rain = 0
KSP2 162248Z 00019KT 10/03 A3002 RMK A01 T00990028  RH  061%=      5-min Rain = 0
KSP2 162249Z 01018KT 10/03 A3002 RMK A01 T00970027  RH  062%=      5-min Rain = 0
KSP2 162250Z 01017KT 10/03 A3002 RMK A01 T00970029  RH  063%=      5-min Rain = 0
KSP2 162251Z 00021KT 10/03 A3002 RMK A01 T00980030  RH  062%=      5-min Rain = 0
KSP2 162252Z 00021G27KT 10/03 A3002 RMK A01 T00980027  RH  061%=      5-min Rain = 0
KSP2 162253Z 35020G25KT 10/03 A3002 RMK A01 T00950026  RH  062%=      5-min Rain = 0
KSP2 162254Z 35020KT 09/03 A3002 RMK A01 T00930026  RH  063%=      5-min Rain = 0
KSP2 162255Z 00019KT 09/03 A3002 RMK A01 T00920025  RH  063%=      5-min Rain = 0
KSP2 162256Z 36022KT 09/03 A3002 RMK A01 T00920026  RH  063%=      5-min Rain = 0
KSP2 162257Z 36019KT 09/03 A3002 RMK A01 T00920025  RH  063%=      5-min Rain = 0
KSP2 162258Z 35020KT 09/03 A3002 RMK A01 T00930025  RH  063%=      5-min Rain = 0
KSP2 162259Z 36021G26KT 09/02 A3002 RMK A01 T00930023  RH  062%=      5-min Rain = 0
KSP2 162300Z 00018KT 09/02 A3002 RMK A01 T00920024  RH  062%=      5-min Rain = 0
KSP2 162301Z 36015KT 09/03 A3002 RMK A01 T00920026  RH  063%=      5-min Rain = 0
KSP2 162302Z 00019KT 09/03 A3002 RMK A01 T00920027  RH  064%=      5-min Rain = 0
KSP2 162303Z 00019KT 09/03 A3003 RMK A01 T00920026  RH  063%=      5-min Rain = 0
KSP2 162304Z 36020G25KT 09/03 A3003 RMK A01 T00910026  RH  064%=      5-min Rain = 0
KSP2 162305Z 35018KT 09/03 A3003 RMK A01 T00910027  RH  064%=      5-min Rain = 0
KSP2 162306Z 36016KT 09/03 A3003 RMK A01 T00910027  RH  064%=      5-min Rain = 0
KSP2 162307Z 36016KT 09/03 A3003 RMK A01 T00910025  RH  063%=      5-min Rain = 0
KSP2 162308Z 36020KT 09/03 A3003 RMK A01 T00910027  RH  064%=      5-min Rain = 0
KSP2 162309Z 36018KT 09/03 A3003 RMK A01 T00910026  RH  064%=      5-min Rain = 0
KSP2 162310Z 36017KT 09/03 A3003 RMK A01 T00890025  RH  064%=      5-min Rain = 0
KSP2 162311Z 36018KT 09/03 A3003 RMK A01 T00880026  RH  065%=      5-min Rain = 0
KSP2 162312Z 35020KT 09/03 A3003 RMK A01 T00880027  RH  065%=      5-min Rain = 0
KSP2 162313Z 36020KT 09/03 A3003 RMK A01 T00880026  RH  065%=      5-min Rain = 0
KSP2 162314Z 00020KT 09/03 A3003 RMK A01 T00870028  RH  066%=      5-min Rain = 0
KSP2 162315Z 01019KT 09/03 A3003 RMK A01 T00870028  RH  067%=      5-min Rain = 0
KSP2 162316Z 01019KT 09/03 A3003 RMK A01 T00860028  RH  067%=      5-min Rain = 0
KSP2 162317Z 01017G22KT 09/03 A3003 RMK A01 T00860028  RH  067%=      5-min Rain = 0
KSP2 162318Z 01017KT 09/03 A3004 RMK A01 T00860026  RH  066%=      5-min Rain = 0
KSP2 162319Z 01018KT 09/02 A3004 RMK A01 T00860024  RH  065%=      5-min Rain = 0
KSP2 162320Z 01015KT 09/03 A3004 RMK A01 T00860025  RH  066%=      5-min Rain = 0
KSP2 162321Z 01017KT 09/03 A3004 RMK A01 T00860026  RH  066%=      5-min Rain = 0
KSP2 162322Z 00019KT 09/03 A3004 RMK A01 T00860025  RH  066%=      5-min Rain = 0
KSP2 162323Z 00019KT 09/02 A3004 RMK A01 T00850022  RH  065%=      5-min Rain = 0
KSP2 162324Z 00019KT 09/02 A3004 RMK A01 T00850023  RH  065%=      5-min Rain = 0
KSP2 162325Z 00019KT 08/02 A3004 RMK A01 T00840021  RH  064%=      5-min Rain = 0
KSP2 162326Z 00019KT 08/02 A3004 RMK A01 T00840020  RH  064%=      5-min Rain = 0
KSP2 162327Z 36016G21KT 08/02 A3004 RMK A01 T00820021  RH  065%=      5-min Rain = 0
KSP2 162328Z 00016KT 08/02 A3004 RMK A01 T00820020  RH  065%=      5-min Rain = 0
KSP2 162329Z 01015KT 08/02 A3004 RMK A01 T00820023  RH  066%=      5-min Rain = 0
KSP2 162330Z 02016KT 08/02 A3004 RMK A01 T00820022  RH  066%=      5-min Rain = 0
KSP2 162331Z 01015KT 08/02 A3004 RMK A01 T00820021  RH  066%=      5-min Rain = 0
KSP2 162332Z 01016G21KT 08/02 A3004 RMK A01 T00810022  RH  066%=      5-min Rain = 0
KSP2 162333Z 01017KT 08/02 A3004 RMK A01 T00810021  RH  066%=      5-min Rain = 0
KSP2 162334Z 01019KT 08/02 A3004 RMK A01 T00800020  RH  066%=      5-min Rain = 0
KSP2 162335Z 01018KT 08/02 A3004 RMK A01 T00800018  RH  065%=      5-min Rain = 0
KSP2 162336Z 00016KT 08/02 A3004 RMK A01 T00790017  RH  065%=      5-min Rain = 0
KSP2 162337Z 00015KT 08/02 A3004 RMK A01 T00800018  RH  065%=      5-min Rain = 0
KSP2 162338Z 36016KT 08/02 A3004 RMK A01 T00800018  RH  065%=      5-min Rain = 0
KSP2 162339Z 36016KT 08/02 A3004 RMK A01 T00800019  RH  066%=      5-min Rain = 0
KSP2 162340Z 01014G19KT 08/02 A3004 RMK A01 T00800021  RH  066%=      5-min Rain = 0
KSP2 162341Z 01014G19KT 08/02 A3004 RMK A01 T00800019  RH  066%=      5-min Rain = 0
KSP2 162342Z 01012KT 08/02 A3004 RMK A01 T00790021  RH  067%=      5-min Rain = 0
KSP2 162343Z 01016KT 08/02 A3004 RMK A01 T00790021  RH  067%=      5-min Rain = 0
KSP2 162344Z 02015G20KT 08/02 A3004 RMK A01 T00790020  RH  066%=      5-min Rain = 0
KSP2 162345Z 01016KT 08/02 A3004 RMK A01 T00780020  RH  067%=      5-min Rain = 0
KSP2 162346Z 01015KT 08/02 A3004 RMK A01 T00780022  RH  067%=      5-min Rain = 0
KSP2 162347Z 35018KT 08/02 A3004 RMK A01 T00780019  RH  066%=      5-min Rain = 0
KSP2 162348Z 00019KT 08/02 A3004 RMK A01 T00770016  RH  065%=      5-min Rain = 0
KSP2 162349Z 00020KT 08/02 A3004 RMK A01 T00770016  RH  066%=      5-min Rain = 0
KSP2 162350Z 36018KT 08/02 A3004 RMK A01 T00770017  RH  066%=      5-min Rain = 0
KSP2 162351Z 35017G22KT 08/02 A3004 RMK A01 T00770018  RH  066%=      5-min Rain = 0
KSP2 162352Z 36018KT 08/02 A3005 RMK A01 T00760018  RH  067%=      5-min Rain = 0
KSP2 162353Z 35017KT 08/02 A3005 RMK A01 T00760018  RH  067%=      5-min Rain = 0
KSP2 162354Z 36017KT 08/02 A3005 RMK A01 T00760018  RH  067%=      5-min Rain = 0
KSP2 162355Z 36019KT 08/02 A3005 RMK A01 T00770019  RH  067%=      5-min Rain = 0
KSP2 162356Z 36016KT 08/02 A3005 RMK A01 T00760019  RH  067%=      5-min Rain = 0
KSP2 162357Z 36017KT 08/02 A3005 RMK A01 T00770017  RH  066%=      5-min Rain = 0
KSP2 162358Z 00016KT 08/02 A3005 RMK A01 T00760017  RH  066%=      5-min Rain = 0
KSP2 162359Z 00016KT 08/02 A3005 RMK A01 T00760018  RH  066%=      5-min Rain = 0
KSP2 170000Z 01016KT 08/02 A3005 RMK A01 T00770019  RH  067%=      5-min Rain = 0
KSP2 170001Z 01015G20KT 08/02 A3005 RMK A01 T00770022  RH  068%=      5-min Rain = 0
KSP2 170002Z 01014G20KT 08/02 A3005 RMK A01 T00770021  RH  068%=      5-min Rain = 0
KSP2 170003Z 01018KT 08/02 A3005 RMK A01 T00760022  RH  068%=      5-min Rain = 0
KSP2 170004Z 01017KT 08/02 A3005 RMK A01 T00760018  RH  067%=      5-min Rain = 0
KSP2 170005Z 01017KT 08/02 A3005 RMK A01 T00760018  RH  067%=      5-min Rain = 0
KSP2 170006Z 01016KT 08/02 A3005 RMK A01 T00760018  RH  067%=      5-min Rain = 0
KSP2 170007Z 00012KT 08/02 A3005 RMK A01 T00750018  RH  067%=      5-min Rain = 0
KSP2 170008Z 01016KT 08/02 A3005 RMK A01 T00760020  RH  068%=      5-min Rain = 0
KSP2 170009Z 01013KT 08/02 A3005 RMK A01 T00750019  RH  067%=      5-min Rain = 0
KSP2 170010Z 01012KT 08/02 A3005 RMK A01 T00760020  RH  068%=      5-min Rain = 0
KSP2 170011Z 01014KT 08/02 A3005 RMK A01 T00750020  RH  068%=      5-min Rain = 0
KSP2 170012Z 00015KT 08/02 A3006 RMK A01 T00760021  RH  068%=      5-min Rain = 0
KSP2 170013Z 01017KT 08/02 A3006 RMK A01 T00750019  RH  068%=      5-min Rain = 0
KSP2 170014Z 01016KT 08/02 A3006 RMK A01 T00750020  RH  068%=      5-min Rain = 0
KSP2 170015Z 01015KT 08/02 A3006 RMK A01 T00750020  RH  068%=      5-min Rain = 0
KSP2 170016Z 01014KT 08/02 A3006 RMK A01 T00750021  RH  069%=      5-min Rain = 0
KSP2 170017Z 01015KT 08/02 A3006 RMK A01 T00760022  RH  069%=      5-min Rain = 0
KSP2 170018Z 01014KT 08/02 A3005 RMK A01 T00750021  RH  068%=      5-min Rain = 0
KSP2 170019Z 01014KT 08/02 A3005 RMK A01 T00760021  RH  068%=      5-min Rain = 0
KSP2 170020Z 01016KT 08/02 A3005 RMK A01 T00750021  RH  068%=      5-min Rain = 0
KSP2 170021Z 01015KT 08/02 A3005 RMK A01 T00750020  RH  068%=      5-min Rain = 0
KSP2 170022Z 02016KT 08/02 A3006 RMK A01 T00750021  RH  069%=      5-min Rain = 0
KSP2 170023Z 01015KT 08/02 A3006 RMK A01 T00750020  RH  068%=      5-min Rain = 0
KSP2 170024Z 01018KT 08/02 A3006 RMK A01 T00750020  RH  068%=      5-min Rain = 0
KSP2 170025Z 01019G24KT 08/02 A3006 RMK A01 T00750020  RH  068%=      5-min Rain = 0
KSP2 170026Z 01016G22KT 08/02 A3006 RMK A01 T00750019  RH  068%=      5-min Rain = 0
KSP2 170027Z 01017KT 08/02 A3006 RMK A01 T00750020  RH  068%=      5-min Rain = 0
KSP2 170028Z 01017KT 08/02 A3006 RMK A01 T00750019  RH  067%=      5-min Rain = 0
KSP2 170029Z 01014KT 08/02 A3006 RMK A01 T00750020  RH  068%=      5-min Rain = 0
KSP2 170030Z 01017KT 07/02 A3006 RMK A01 T00740020  RH  068%=      5-min Rain = 0
KSP2 170031Z 01017KT 07/02 A3006 RMK A01 T00740019  RH  068%=      5-min Rain = 0
KSP2 170032Z 00017KT 07/02 A3006 RMK A01 T00740019  RH  068%=      5-min Rain = 0
KSP2 170033Z 00020G25KT 07/02 A3006 RMK A01 T00740019  RH  068%=      5-min Rain = 0
KSP2 170034Z 01018G23KT 07/02 A3006 RMK A01 T00740018  RH  068%=      5-min Rain = 0
KSP2 170035Z 00021KT 07/02 A3006 RMK A01 T00740018  RH  068%=      5-min Rain = 0
KSP2 170036Z 00017KT 07/02 A3006 RMK A01 T00730018  RH  068%=      5-min Rain = 0
KSP2 170037Z 01017G22KT 07/02 A3006 RMK A01 T00730021  RH  069%=      5-min Rain = 0
KSP2 170038Z 01017KT 07/02 A3006 RMK A01 T00730020  RH  069%=      5-min Rain = 0
KSP2 170039Z 01020KT 07/02 A3005 RMK A01 T00730018  RH  068%=      5-min Rain = 0
KSP2 170040Z 01019G24KT 07/02 A3006 RMK A01 T00720017  RH  068%=      5-min Rain = 0
KSP2 170041Z 01019KT 07/02 A3006 RMK A01 T00710016  RH  068%=      5-min Rain = 0
KSP2 170042Z 01013KT 07/02 A3006 RMK A01 T00710017  RH  069%=      5-min Rain = 0
KSP2 170043Z 02016KT 07/02 A3006 RMK A01 T00710018  RH  069%=      5-min Rain = 0
KSP2 170044Z 01019KT 07/02 A3006 RMK A01 T00710017  RH  069%=      5-min Rain = 0
KSP2 170045Z 01021KT 07/02 A3006 RMK A01 T00700015  RH  068%=      5-min Rain = 0
KSP2 170046Z 01019KT 07/01 A3006 RMK A01 T00690014  RH  068%=      5-min Rain = 0
KSP2 170047Z 00018KT 07/02 A3006 RMK A01 T00690015  RH  068%=      5-min Rain = 0
KSP2 170048Z 01019KT 07/02 A3006 RMK A01 T00690015  RH  068%=      5-min Rain = 0
KSP2 170049Z 01016KT 07/02 A3006 RMK A01 T00680015  RH  069%=      5-min Rain = 0
KSP2 170050Z 01015KT 07/02 A3006 RMK A01 T00680016  RH  069%=      5-min Rain = 0
KSP2 170051Z 01014KT 07/02 A3006 RMK A01 T00680017  RH  070%=      5-min Rain = 0
KSP2 170052Z 02015KT 07/02 A3006 RMK A01 T00680017  RH  070%=      5-min Rain = 0
KSP2 170053Z 02015KT 07/02 A3006 RMK A01 T00680016  RH  069%=      5-min Rain = 0
KSP2 170054Z 02014KT 07/02 A3006 RMK A01 T00680015  RH  069%=      5-min Rain = 0
KSP2 170055Z 02017KT 07/02 A3006 RMK A01 T00680015  RH  069%=      5-min Rain = 0
KSP2 170056Z 01020KT 07/01 A3006 RMK A01 T00680014  RH  069%=      5-min Rain = 0
KSP2 170057Z 01020KT 07/01 A3006 RMK A01 T00680013  RH  068%=      5-min Rain = 0
KSP2 170058Z 01016KT 07/01 A3006 RMK A01 T00680014  RH  068%=      5-min Rain = 0
KSP2 170059Z 01013KT 07/02 A3006 RMK A01 T00680016  RH  070%=      5-min Rain = 0
KSP2 170100Z 01017KT 07/02 A3006 RMK A01 T00670016  RH  070%=      5-min Rain = 0
KSP2 170101Z 01017KT 07/02 A3005 RMK A01 T00670015  RH  070%=      5-min Rain = 0
KSP2 170102Z 02017KT 07/02 A3005 RMK A01 T00670015  RH  069%=      5-min Rain = 0
KSP2 170103Z 01017KT 07/02 A3005 RMK A01 T00670015  RH  070%=      5-min Rain = 0
KSP2 170104Z 01016KT 07/02 A3005 RMK A01 T00670015  RH  070%=      5-min Rain = 0
KSP2 170105Z 02014G19KT 07/02 A3006 RMK A01 T00670016  RH  070%=      5-min Rain = 0
KSP2 170106Z 02016KT 07/02 A3005 RMK A01 T00670016  RH  070%=      5-min Rain = 0
KSP2 170107Z 01017G22KT 07/02 A3006 RMK A01 T00670016  RH  070%=      5-min Rain = 0
KSP2 170108Z 01017KT 07/02 A3005 RMK A01 T00660016  RH  070%=      5-min Rain = 0
KSP2 170109Z 02018KT 07/02 A3005 RMK A01 T00660016  RH  070%=      5-min Rain = 0
KSP2 170110Z 02018G23KT 07/02 A3006 RMK A01 T00670017  RH  070%=      5-min Rain = 0
KSP2 170111Z 02016KT 07/02 A3006 RMK A01 T00660015  RH  070%=      5-min Rain = 0
KSP2 170112Z 03013KT 07/02 A3006 RMK A01 T00660016  RH  071%=      5-min Rain = 0
KSP2 170113Z 02014KT 07/02 A3006 RMK A01 T00650017  RH  071%=      5-min Rain = 0
KSP2 170114Z 01016KT 07/02 A3006 RMK A01 T00650017  RH  071%=      5-min Rain = 0
KSP2 170115Z 02019G24KT 06/02 A3006 RMK A01 T00640015  RH  070%=      5-min Rain = 0
KSP2 170116Z 02021KT 06/01 A3006 RMK A01 T00640012  RH  070%=      5-min Rain = 0
KSP2 170117Z 02020KT 06/01 A3006 RMK A01 T00630011  RH  069%=      5-min Rain = 0
KSP2 170118Z 02018KT 06/01 A3006 RMK A01 T00640013  RH  070%=      5-min Rain = 0
KSP2 170119Z 01017G22KT 06/01 A3006 RMK A01 T00630013  RH  070%=      5-min Rain = 0
KSP2 170120Z 02021KT 06/01 A3006 RMK A01 T00630013  RH  070%=      5-min Rain = 0
KSP2 170121Z 02016G21KT 06/01 A3007 RMK A01 T00630012  RH  070%=      5-min Rain = 0
KSP2 170122Z 02018KT 06/01 A3007 RMK A01 T00630012  RH  070%=      5-min Rain = 0
KSP2 170123Z 02016KT 06/01 A3007 RMK A01 T00630012  RH  070%=      5-min Rain = 0
KSP2 170124Z 02014KT 06/01 A3007 RMK A01 T00630012  RH  070%=      5-min Rain = 0
KSP2 170125Z 02016KT 06/01 A3007 RMK A01 T00630012  RH  070%=      5-min Rain = 0
KSP2 170126Z 01013KT 06/01 A3007 RMK A01 T00630013  RH  071%=      5-min Rain = 0
KSP2 170127Z 02015KT 06/01 A3007 RMK A01 T00620014  RH  071%=      5-min Rain = 0
KSP2 170128Z 02013KT 06/01 A3008 RMK A01 T00620014  RH  071%=      5-min Rain = 0
KSP2 170129Z 02014KT 06/01 A3008 RMK A01 T00620014  RH  071%=      5-min Rain = 0
KSP2 170130Z 02012KT 06/01 A3008 RMK A01 T00620014  RH  071%=      5-min Rain = 0
KSP2 170131Z 02015KT 06/01 A3008 RMK A01 T00620014  RH  071%=      5-min Rain = 0
KSP2 170132Z 02013KT 06/01 A3008 RMK A01 T00620014  RH  071%=      5-min Rain = 0
KSP2 170133Z 01015KT 06/01 A3008 RMK A01 T00620014  RH  071%=      5-min Rain = 0
KSP2 170134Z 01015KT 06/01 A3008 RMK A01 T00620014  RH  071%=      5-min Rain = 0
KSP2 170135Z 01015KT 06/01 A3009 RMK A01 T00620014  RH  071%=      5-min Rain = 0
KSP2 170136Z 02016KT 06/01 A3009 RMK A01 T00620014  RH  071%=      5-min Rain = 0
KSP2 170137Z 02017KT 06/01 A3009 RMK A01 T00620013  RH  071%=      5-min Rain = 0
KSP2 170138Z 02013KT 06/01 A3009 RMK A01 T00620012  RH  070%=      5-min Rain = 0
KSP2 170139Z 02011KT 06/01 A3009 RMK A01 T00620013  RH  071%=      5-min Rain = 0
KSP2 170140Z 01012G18KT 06/02 A3009 RMK A01 T00620015  RH  072%=      5-min Rain = 0
KSP2 170141Z 01015KT 06/01 A3009 RMK A01 T00620014  RH  072%=      5-min Rain = 0
KSP2 170142Z 01014KT 06/01 A3009 RMK A01 T00620014  RH  072%=      5-min Rain = 0
KSP2 170143Z 02014KT 06/01 A3009 RMK A01 T00620014  RH  071%=      5-min Rain = 0
KSP2 170144Z 01013KT 06/01 A3009 RMK A01 T00620014  RH  071%=      5-min Rain = 0
KSP2 170145Z 02012G17KT 06/02 A3009 RMK A01 T00620015  RH  072%=      5-min Rain = 0
KSP2 170146Z 01015KT 06/02 A3009 RMK A01 T00620015  RH  072%=      5-min Rain = 0
KSP2 170147Z 01017KT 06/02 A3009 RMK A01 T00620015  RH  072%=      5-min Rain = 0
KSP2 170148Z 01016KT 06/01 A3009 RMK A01 T00620014  RH  071%=      5-min Rain = 0
KSP2 170149Z 02011KT 06/02 A3009 RMK A01 T00620015  RH  072%=      5-min Rain = 0
KSP2 170150Z 01011KT 06/02 A3009 RMK A01 T00620016  RH  073%=      5-min Rain = 0
KSP2 170151Z 01011KT 06/02 A3009 RMK A01 T00620017  RH  073%=      5-min Rain = 0
KSP2 170152Z 01014KT 06/02 A3009 RMK A01 T00620016  RH  073%=      5-min Rain = 0
KSP2 170153Z 01012KT 06/02 A3009 RMK A01 T00620016  RH  072%=      5-min Rain = 0
KSP2 170154Z 01011KT 06/02 A301 RMK A01 T00620017  RH  073%=      5-min Rain = 0
KSP2 170155Z 01011KT 06/02 A301 RMK A01 T00620017  RH  073%=      5-min Rain = 0
KSP2 170156Z 01010KT 06/02 A301 RMK A01 T00620018  RH  073%=      5-min Rain = 0
KSP2 170157Z 00012KT 06/02 A301 RMK A01 T00620018  RH  074%=      5-min Rain = 0
KSP2 170158Z 00016KT 06/02 A301 RMK A01 T00620017  RH  073%=      5-min Rain = 0
KSP2 170159Z 00015KT 06/02 A301 RMK A01 T00620016  RH  072%=      5-min Rain = 0
KSP2 170200Z 00013KT 06/02 A301 RMK A01 T00620017  RH  073%=      5-min Rain = 0
KSP2 170201Z 00010KT 06/02 A301 RMK A01 T00620018  RH  073%=      5-min Rain = 0
KSP2 170202Z 00010KT 06/02 A3011 RMK A01 T00620019  RH  074%=      5-min Rain = 0
KSP2 170203Z 00010KT 06/02 A3011 RMK A01 T00620019  RH  074%=      5-min Rain = 0
KSP2 170204Z 01012KT 06/02 A3011 RMK A01 T00620019  RH  074%=      5-min Rain = 0
KSP2 170205Z 02013G18KT 06/02 A3011 RMK A01 T00620018  RH  074%=      5-min Rain = 0
KSP2 170206Z 02014KT 06/02 A3011 RMK A01 T00620016  RH  072%=      5-min Rain = 0
KSP2 170207Z 01013KT 06/02 A3011 RMK A01 T00620015  RH  072%=      5-min Rain = 0
KSP2 170208Z 01016KT 06/02 A3011 RMK A01 T00620015  RH  072%=      5-min Rain = 0
KSP2 170209Z 01015KT 06/01 A3012 RMK A01 T00620014  RH  071%=      5-min Rain = 0
KSP2 170210Z 00016G21KT 06/01 A3012 RMK A01 T00620013  RH  071%=      5-min Rain = 0
KSP2 170211Z 00014KT 06/01 A3012 RMK A01 T00620013  RH  071%=      5-min Rain = 0
KSP2 170212Z 00012KT 06/01 A3013 RMK A01 T00620014  RH  072%=      5-min Rain = 0
KSP2 170213Z 01014KT 06/01 A3013 RMK A01 T00610014  RH  072%=      5-min Rain = 0
KSP2 170214Z 01017KT 06/01 A3013 RMK A01 T00610012  RH  071%=      5-min Rain = 0
KSP2 170215Z 01015KT 06/01 A3013 RMK A01 T00620011  RH  070%=      5-min Rain = 0
KSP2 170216Z 01014KT 06/01 A3013 RMK A01 T00610011  RH  070%=      5-min Rain = 0
KSP2 170217Z 01013KT 06/01 A3013 RMK A01 T00610013  RH  071%=      5-min Rain = 0
KSP2 170218Z 01016KT 06/01 A3013 RMK A01 T00610012  RH  071%=      5-min Rain = 0
KSP2 170219Z 01014KT 06/01 A3013 RMK A01 T00620011  RH  070%=      5-min Rain = 0
KSP2 170220Z 01013KT 06/01 A3013 RMK A01 T00610012  RH  071%=      5-min Rain = 0
KSP2 170221Z 01011KT 06/01 A3013 RMK A01 T00610012  RH  071%=      5-min Rain = 0
KSP2 170222Z 01012KT 06/01 A3013 RMK A01 T00610013  RH  071%=      5-min Rain = 0
KSP2 170223Z 01012KT 06/01 A3013 RMK A01 T00610013  RH  071%=      5-min Rain = 0
KSP2 170224Z 01015KT 06/01 A3013 RMK A01 T00610012  RH  071%=      5-min Rain = 0
KSP2 170225Z 01016KT 06/01 A3013 RMK A01 T00610011  RH  071%=      5-min Rain = 0
KSP2 170226Z 01015KT 06/01 A3013 RMK A01 T00610010  RH  070%=      5-min Rain = 0
KSP2 170227Z 01013KT 06/01 A3013 RMK A01 T00600010  RH  070%=      5-min Rain = 0
KSP2 170228Z 01012KT 06/01 A3013 RMK A01 T00600011  RH  070%=      5-min Rain = 0
KSP2 170229Z 01014KT 06/01 A3013 RMK A01 T00600011  RH  071%=      5-min Rain = 0
KSP2 170230Z 01012KT 06/01 A3013 RMK A01 T00600011  RH  071%=      5-min Rain = 0
KSP2 170231Z 01011G16KT 06/01 A3013 RMK A01 T00590012  RH  072%=      5-min Rain = 0
KSP2 170232Z 01013KT 06/01 A3013 RMK A01 T00590011  RH  071%=      5-min Rain = 0
KSP2 170233Z 01013KT 06/01 A3013 RMK A01 T00590010  RH  071%=      5-min Rain = 0
KSP2 170234Z 01013KT 06/01 A3014 RMK A01 T00580011  RH  072%=      5-min Rain = 0
KSP2 170235Z 01013KT 06/01 A3014 RMK A01 T00590011  RH  072%=      5-min Rain = 0
KSP2 170236Z 00014KT 06/01 A3014 RMK A01 T00590011  RH  071%=      5-min Rain = 0
KSP2 170237Z 01014KT 06/01 A3014 RMK A01 T00580010  RH  071%=      5-min Rain = 0
KSP2 170238Z 01013KT 06/01 A3014 RMK A01 T00590010  RH  071%=      5-min Rain = 0
KSP2 170239Z 01017KT 06/01 A3014 RMK A01 T00580008  RH  070%=      5-min Rain = 0
KSP2 170240Z 02016KT 06/01 A3014 RMK A01 T00580006  RH  069%=      5-min Rain = 0
KSP2 170241Z 01016KT 06/01 A3014 RMK A01 T00580006  RH  069%=      5-min Rain = 0
KSP2 170242Z 01014KT 06/01 A3014 RMK A01 T00580008  RH  070%=      5-min Rain = 0
KSP2 170243Z 01013KT 06/01 A3014 RMK A01 T00580009  RH  071%=      5-min Rain = 0
KSP2 170244Z 01015KT 06/01 A3014 RMK A01 T00580009  RH  071%=      5-min Rain = 0
KSP2 170245Z 01017KT 06/01 A3014 RMK A01 T00580007  RH  070%=      5-min Rain = 0
KSP2 170246Z 01013KT 06/01 A3014 RMK A01 T00580007  RH  070%=      5-min Rain = 0
KSP2 170247Z 01014KT 06/01 A3014 RMK A01 T00570008  RH  070%=      5-min Rain = 0
KSP2 170248Z 02014KT 06/01 A3014 RMK A01 T00570008  RH  071%=      5-min Rain = 0
KSP2 170249Z 01016KT 06/01 A3014 RMK A01 T00570007  RH  070%=      5-min Rain = 0
KSP2 170250Z 01017KT 06/01 A3014 RMK A01 T00570006  RH  070%=      5-min Rain = 0
KSP2 170251Z 02014KT 06/01 A3014 RMK A01 T00570006  RH  070%=      5-min Rain = 0
KSP2 170252Z 02014KT 06/01 A3014 RMK A01 T00570007  RH  070%=      5-min Rain = 0
KSP2 170253Z 01011KT 06/01 A3014 RMK A01 T00570007  RH  070%=      5-min Rain = 0
KSP2 170254Z 01013KT 06/01 A3014 RMK A01 T00560008  RH  071%=      5-min Rain = 0
KSP2 170255Z 01014KT 06/01 A3014 RMK A01 T00560007  RH  071%=      5-min Rain = 0
KSP2 170256Z 01014KT 06/01 A3014 RMK A01 T00560007  RH  071%=      5-min Rain = 0
KSP2 170257Z 02011KT 06/01 A3014 RMK A01 T00560008  RH  071%=      5-min Rain = 0
KSP2 170258Z 02013KT 06/01 A3014 RMK A01 T00550008  RH  072%=      5-min Rain = 0
KSP2 170259Z 02012KT 06/01 A3014 RMK A01 T00550007  RH  071%=      5-min Rain = 0
KSP2 170300Z 02014KT 06/01 A3014 RMK A01 T00550007  RH  071%=      5-min Rain = 0
KSP2 170301Z 02013G18KT 06/01 A3014 RMK A01 T00550007  RH  071%=      5-min Rain = 0
KSP2 170302Z 02015KT 06/01 A3014 RMK A01 T00550007  RH  071%=      5-min Rain = 0
KSP2 170303Z 02014KT 06/01 A3014 RMK A01 T00550007  RH  071%=      5-min Rain = 0
KSP2 170304Z 02012G17KT 06/01 A3014 RMK A01 T00550008  RH  072%=      5-min Rain = 0
KSP2 170305Z 02015KT 06/01 A3013 RMK A01 T00550008  RH  072%=      5-min Rain = 0
KSP2 170306Z 02016KT 06/01 A3013 RMK A01 T00550008  RH  072%=      5-min Rain = 0
KSP2 170307Z 02015G20KT 06/01 A3013 RMK A01 T00550007  RH  071%=      5-min Rain = 0
KSP2 170308Z 02014KT 06/01 A3013 RMK A01 T00550008  RH  072%=      5-min Rain = 0
KSP2 170309Z 02013KT 06/01 A3013 RMK A01 T00550009  RH  072%=      5-min Rain = 0
KSP2 170310Z 02013G18KT 06/01 A3013 RMK A01 T00550009  RH  073%=      5-min Rain = 0
KSP2 170311Z 02014KT 06/01 A3013 RMK A01 T00550010  RH  073%=      5-min Rain = 0
KSP2 170312Z 02012KT 05/01 A3013 RMK A01 T00540009  RH  073%=      5-min Rain = 0
KSP2 170313Z 02012KT 06/01 A3013 RMK A01 T00550009  RH  073%=      5-min Rain = 0
KSP2 170314Z 02011KT 05/01 A3013 RMK A01 T00540010  RH  073%=      5-min Rain = 0
KSP2 170315Z 02011KT 05/01 A3013 RMK A01 T00540010  RH  073%=      5-min Rain = 0
KSP2 170316Z 02012G17KT 05/01 A3013 RMK A01 T00540010  RH  073%=      5-min Rain = 0
KSP2 170317Z 02012KT 05/01 A3014 RMK A01 T00540010  RH  073%=      5-min Rain = 0
KSP2 170318Z 02012KT 05/01 A3014 RMK A01 T00540009  RH  073%=      5-min Rain = 0
KSP2 170319Z 02013KT 05/01 A3014 RMK A01 T00540009  RH  073%=      5-min Rain = 0
KSP2 170320Z 02014KT 05/01 A3014 RMK A01 T00540009  RH  073%=      5-min Rain = 0
KSP2 170321Z 02010KT 05/01 A3014 RMK A01 T00540009  RH  073%=      5-min Rain = 0
KSP2 170322Z 03009KT 05/01 A3014 RMK A01 T00540010  RH  073%=      5-min Rain = 0
KSP2 170323Z 03010KT 05/01 A3014 RMK A01 T00540010  RH  073%=      5-min Rain = 0
KSP2 170324Z 03009KT 05/01 A3014 RMK A01 T00540011  RH  074%=      5-min Rain = 0
KSP2 170325Z 02012KT 05/01 A3014 RMK A01 T00540010  RH  073%=      5-min Rain = 0
KSP2 170326Z 02012G17KT 05/01 A3014 RMK A01 T00530009  RH  073%=      5-min Rain = 0
KSP2 170327Z 02013KT 05/01 A3014 RMK A01 T00540008  RH  073%=      5-min Rain = 0
KSP2 170328Z 03012KT 05/01 A3014 RMK A01 T00540009  RH  073%=      5-min Rain = 0
KSP2 170329Z 02011G16KT 05/01 A3014 RMK A01 T00540009  RH  073%=      5-min Rain = 0
KSP2 170330Z 03010KT 05/01 A3014 RMK A01 T00540009  RH  073%=      5-min Rain = 0
KSP2 170331Z 03010KT 05/01 A3014 RMK A01 T00540010  RH  073%=      5-min Rain = 0
KSP2 170332Z 03011KT 05/01 A3014 RMK A01 T00540010  RH  073%=      5-min Rain = 0
KSP2 170333Z 03009KT 05/01 A3014 RMK A01 T00530009  RH  073%=      5-min Rain = 0
KSP2 170334Z 02011KT 05/01 A3014 RMK A01 T00540010  RH  073%=      5-min Rain = 0
KSP2 170335Z 02011KT 05/01 A3014 RMK A01 T00530009  RH  073%=      5-min Rain = 0
KSP2 170336Z 02012KT 05/01 A3014 RMK A01 T00530009  RH  073%=      5-min Rain = 0
KSP2 170337Z 03009KT 05/01 A3014 RMK A01 T00540009  RH  073%=      5-min Rain = 0
KSP2 170338Z 02011KT 05/01 A3014 RMK A01 T00540010  RH  073%=      5-min Rain = 0
KSP2 170339Z 02010KT 05/01 A3014 RMK A01 T00540009  RH  073%=      5-min Rain = 0
KSP2 170340Z 03007KT 05/01 A3015 RMK A01 T00530010  RH  073%=      5-min Rain = 0
KSP2 170341Z 03008KT 05/01 A3015 RMK A01 T00530010  RH  074%=      5-min Rain = 0
KSP2 170342Z 02008KT 05/01 A3015 RMK A01 T00530010  RH  074%=      5-min Rain = 0
KSP2 170343Z 02008KT 05/01 A3015 RMK A01 T00530010  RH  074%=      5-min Rain = 0
KSP2 170344Z 02006KT 05/01 A3015 RMK A01 T00520010  RH  074%=      5-min Rain = 0
KSP2 170345Z 02008KT 05/01 A3015 RMK A01 T00520011  RH  075%=      5-min Rain = 0
KSP2 170346Z 02006KT 05/01 A3014 RMK A01 T00520010  RH  075%=      5-min Rain = 0
KSP2 170347Z 02008KT 05/01 A3014 RMK A01 T00520011  RH  075%=      5-min Rain = 0
KSP2 170348Z 03007KT 05/01 A3014 RMK A01 T00510010  RH  075%=      5-min Rain = 0
KSP2 170349Z 02009KT 05/01 A3014 RMK A01 T00510010  RH  075%=      5-min Rain = 0
KSP2 170350Z 02010KT 05/01 A3014 RMK A01 T00510009  RH  074%=      5-min Rain = 0
KSP2 170351Z 02009KT 05/01 A3014 RMK A01 T00510008  RH  074%=      5-min Rain = 0
KSP2 170352Z 02009KT 05/01 A3014 RMK A01 T00510008  RH  074%=      5-min Rain = 0
KSP2 170353Z 03007KT 05/01 A3014 RMK A01 T00510008  RH  074%=      5-min Rain = 0
KSP2 170354Z 02010KT 05/01 A3014 RMK A01 T00510008  RH  074%=      5-min Rain = 0
KSP2 170355Z 02009KT 05/01 A3014 RMK A01 T00510008  RH  074%=      5-min Rain = 0
KSP2 170356Z 02009KT 05/01 A3014 RMK A01 T00500008  RH  074%=      5-min Rain = 0
KSP2 170357Z 02007KT 05/01 A3014 RMK A01 T00500009  RH  075%=      5-min Rain = 0
KSP2 170358Z 02008KT 05/01 A3014 RMK A01 T00500009  RH  075%=      5-min Rain = 0
KSP2 170359Z 02009KT 05/01 A3014 RMK A01 T00490009  RH  075%=      5-min Rain = 0
KSP2 170400Z 02011KT 05/01 A3014 RMK A01 T00500008  RH  075%=      5-min Rain = 0
KSP2 170401Z 02011KT 05/01 A3014 RMK A01 T00500007  RH  074%=      5-min Rain = 0
KSP2 170402Z 02011KT 05/01 A3014 RMK A01 T00500008  RH  074%=      5-min Rain = 0
KSP2 170403Z 01009KT 05/01 A3014 RMK A01 T00500008  RH  074%=      5-min Rain = 0
KSP2 170404Z 02010KT 05/01 A3014 RMK A01 T00500009  RH  075%=      5-min Rain = 0
KSP2 170405Z 02010KT 05/01 A3014 RMK A01 T00500009  RH  075%=      5-min Rain = 0
KSP2 170406Z 02010KT 05/01 A3014 RMK A01 T00500009  RH  075%=      5-min Rain = 0
KSP2 170407Z 02011KT 05/01 A3014 RMK A01 T00490008  RH  075%=      5-min Rain = 0
KSP2 170408Z 02010KT 05/01 A3014 RMK A01 T00490008  RH  074%=      5-min Rain = 0
KSP2 170409Z 01008KT 05/01 A3014 RMK A01 T00490008  RH  075%=      5-min Rain = 0
KSP2 170410Z 02009KT 05/01 A3014 RMK A01 T00490009  RH  075%=      5-min Rain = 0
KSP2 170411Z 01009KT 05/01 A3014 RMK A01 T00490009  RH  075%=      5-min Rain = 0
KSP2 170412Z 01009KT 05/01 A3014 RMK A01 T00490009  RH  075%=      5-min Rain = 0
KSP2 170413Z 02011KT 05/01 A3014 RMK A01 T00490009  RH  075%=      5-min Rain = 0
KSP2 170414Z 01010KT 05/01 A3014 RMK A01 T00480008  RH  075%=      5-min Rain = 0
KSP2 170415Z 01008KT 05/01 A3014 RMK A01 T00490008  RH  075%=      5-min Rain = 0
KSP2 170416Z 01011KT 05/01 A3014 RMK A01 T00480009  RH  076%=      5-min Rain = 0
KSP2 170417Z 02012KT 05/01 A3014 RMK A01 T00480008  RH  075%=      5-min Rain = 0
KSP2 170418Z 01011KT 05/01 A3014 RMK A01 T00490007  RH  074%=      5-min Rain = 0
KSP2 170419Z 02009KT 05/01 A3014 RMK A01 T00490008  RH  075%=      5-min Rain = 0
KSP2 170420Z 01008KT 05/01 A3014 RMK A01 T00490009  RH  075%=      5-min Rain = 0
KSP2 170421Z 01009KT 05/01 A3015 RMK A01 T00490009  RH  076%=      5-min Rain = 0
KSP2 170422Z 01010KT 05/01 A3015 RMK A01 T00490009  RH  076%=      5-min Rain = 0
KSP2 170423Z 01010KT 05/01 A3015 RMK A01 T00490009  RH  076%=      5-min Rain = 0
KSP2 170424Z 01011KT 05/01 A3015 RMK A01 T00490009  RH  075%=      5-min Rain = 0
KSP2 170425Z 01011KT 05/01 A3015 RMK A01 T00490008  RH  075%=      5-min Rain = 0
KSP2 170426Z 01010KT 05/01 A3015 RMK A01 T00490008  RH  075%=      5-min Rain = 0
KSP2 170427Z 01009KT 05/01 A3015 RMK A01 T00490009  RH  075%=      5-min Rain = 0
KSP2 170428Z 01009KT 05/01 A3015 RMK A01 T00490009  RH  076%=      5-min Rain = 0
KSP2 170429Z 01008KT 05/01 A3015 RMK A01 T00490010  RH  076%=      5-min Rain = 0
KSP2 170430Z 01010KT 05/01 A3015 RMK A01 T00480010  RH  076%=      5-min Rain = 0
KSP2 170431Z 01009KT 05/01 A3015 RMK A01 T00480009  RH  076%=      5-min Rain = 0
KSP2 170432Z 01010KT 05/01 A3015 RMK A01 T00480009  RH  076%=      5-min Rain = 0
KSP2 170433Z 01011KT 05/01 A3015 RMK A01 T00480009  RH  076%=      5-min Rain = 0
KSP2 170434Z 01010KT 05/01 A3015 RMK A01 T00480009  RH  076%=      5-min Rain = 0
KSP2 170435Z 01009KT 05/01 A3015 RMK A01 T00480010  RH  076%=      5-min Rain = 0
KSP2 170436Z 01011KT 05/01 A3015 RMK A01 T00480009  RH  076%=      5-min Rain = 0
KSP2 170437Z 01012KT 05/01 A3015 RMK A01 T00480009  RH  076%=      5-min Rain = 0
KSP2 170438Z 01012KT 05/01 A3015 RMK A01 T00480009  RH  075%=      5-min Rain = 0
KSP2 170439Z 01009KT 05/01 A3015 RMK A01 T00480009  RH  076%=      5-min Rain = 0
KSP2 170440Z 01009KT 05/01 A3015 RMK A01 T00490010  RH  076%=      5-min Rain = 0
KSP2 170441Z 01013KT 05/01 A3015 RMK A01 T00490010  RH  076%=      5-min Rain = 0
KSP2 170442Z 01013KT 05/01 A3015 RMK A01 T00480009  RH  075%=      5-min Rain = 0
KSP2 170443Z 01012KT 05/01 A3015 RMK A01 T00490009  RH  075%=      5-min Rain = 0
KSP2 170444Z 01011KT 05/01 A3015 RMK A01 T00490008  RH  075%=      5-min Rain = 0
KSP2 170445Z 01010KT 05/01 A3015 RMK A01 T00490009  RH  076%=      5-min Rain = 0
KSP2 170446Z 01010KT 05/01 A3015 RMK A01 T00480010  RH  076%=      5-min Rain = 0
KSP2 170447Z 01010KT 05/01 A3015 RMK A01 T00480010  RH  077%=      5-min Rain = 0
KSP2 170448Z 01011KT 05/01 A3015 RMK A01 T00480011  RH  077%=      5-min Rain = 0
KSP2 170449Z 01011KT 05/01 A3014 RMK A01 T00470010  RH  077%=      5-min Rain = 0
KSP2 170450Z 01010KT 05/01 A3014 RMK A01 T00480010  RH  077%=      5-min Rain = 0
KSP2 170451Z 01011KT 05/01 A3014 RMK A01 T00470010  RH  077%=      5-min Rain = 0
KSP2 170452Z 01013KT 05/01 A3014 RMK A01 T00480010  RH  076%=      5-min Rain = 0
KSP2 170453Z 01011KT 05/01 A3014 RMK A01 T00480009  RH  076%=      5-min Rain = 0
KSP2 170454Z 01012KT 05/01 A3014 RMK A01 T00480009  RH  076%=      5-min Rain = 0
KSP2 170455Z 01011KT 05/01 A3014 RMK A01 T00480009  RH  076%=      5-min Rain = 0
KSP2 170456Z 00012KT 05/01 A3014 RMK A01 T00490010  RH  076%=      5-min Rain = 0
KSP2 170457Z 01012KT 05/01 A3014 RMK A01 T00490009  RH  076%=      5-min Rain = 0
KSP2 170458Z 01013KT 05/01 A3014 RMK A01 T00480009  RH  076%=      5-min Rain = 0
KSP2 170459Z 01011KT 05/01 A3014 RMK A01 T00480009  RH  076%=      5-min Rain = 0

Page generated in 0.0634 seconds.